Time,TemperatureF,DewpointF,PressureIn,WindDirection,WindDirectionDegrees,WindSpeedMPH,WindSpeedGustMPH,Humidity,HourlyPrecipIn,Conditions,Clouds,dailyrainin,SoftwareType,DateUTC
2013-09-24 00:00:00,77.4,73.9,29.97,North,0,0.0,0.0,89,0.00,,SCT120,0.31,VWS V14.01,2013-09-24 04:00:00,
2013-09-24 00:01:00,77.4,73.9,29.97,North,0,0.0,0.0,89,0.00,,SCT120,0.31,VWS V14.01,2013-09-24 04:01:00,
2013-09-24 00:02:00,77.4,73.9,29.97,North,0,0.0,0.0,89,0.00,,SCT120,0.31,VWS V14.01,2013-09-24 04:02:00,
2013-09-24 00:04:00,77.4,73.9,29.97,North,0,0.0,0.0,89,0.00,,SCT120,0.00,VWS V14.01,2013-09-24 04:04:00,
2013-09-24 00:07:00,77.4,73.9,29.97,North,0,0.0,0.0,89,0.00,,SCT120,0.00,VWS V14.01,2013-09-24 04:07:00,
2013-09-24 00:10:00,77.4,73.9,29.97,North,0,0.0,0.0,89,0.00,,SCT120,0.00,VWS V14.01,2013-09-24 04:10:00,
2013-09-24 00:12:00,77.5,74.1,29.97,North,0,0.0,0.0,89,0.00,,SCT120,0.00,VWS V14.01,2013-09-24 04:12:00,
2013-09-24 00:14:00,77.5,74.1,29.97,North,0,0.0,0.0,89,0.00,,SCT120,0.00,VWS V14.01,2013-09-24 04:14:00,
2013-09-24 00:15:00,77.5,74.1,29.97,North,0,0.0,0.0,89,0.00,,SCT120,0.00,VWS V14.01,2013-09-24 04:15:00,
2013-09-24 00:16:00,77.5,74.1,29.97,North,0,0.0,0.0,89,0.00,,SCT120,0.00,VWS V14.01,2013-09-24 04:16:00,
2013-09-24 00:17:00,77.5,74.1,29.97,North,0,0.0,0.0,89,0.00,,SCT120,0.00,VWS V14.01,2013-09-24 04:17:00,
2013-09-24 00:18:00,77.5,74.1,29.97,North,0,0.0,0.0,89,0.00,,SCT120,0.00,VWS V14.01,2013-09-24 04:18:00,
2013-09-24 00:20:00,77.5,74.1,29.97,North,0,0.0,0.0,89,0.00,,SCT120,0.00,VWS V14.01,2013-09-24 04:20:00,
2013-09-24 00:22:00,77.5,74.1,29.97,North,0,0.0,0.0,89,0.00,,SCT120,0.00,VWS V14.01,2013-09-24 04:22:00,
2013-09-24 00:23:00,77.5,74.4,29.97,North,0,0.0,0.0,90,0.00,,SCT120,0.00,VWS V14.01,2013-09-24 04:23:00,
2013-09-24 00:25:00,77.7,74.6,29.97,North,0,0.0,0.0,90,0.00,,SCT120,0.00,VWS V14.01,2013-09-24 04:25:00,
2013-09-24 00:28:00,77.7,74.6,29.97,North,0,0.0,0.0,90,0.00,,SCT120,0.00,VWS V14.01,2013-09-24 04:28:00,
2013-09-24 00:31:00,77.7,74.6,29.97,North,0,0.0,0.0,90,0.00,,SCT120,0.00,VWS V14.01,2013-09-24 04:31:00,
2013-09-24 00:32:00,77.9,74.7,29.97,North,0,0.0,0.0,90,0.00,,SCT120,0.00,VWS V14.01,2013-09-24 04:32:00,
2013-09-24 00:34:00,77.9,74.7,29.97,North,0,0.0,0.0,90,0.00,,SCT120,0.00,VWS V14.01,2013-09-24 04:34:00,
2013-09-24 00:36:00,77.9,74.7,29.97,North,0,0.0,0.0,90,0.00,,SCT120,0.00,VWS V14.01,2013-09-24 04:36:00,
2013-09-24 00:37:00,77.9,74.7,29.97,North,0,0.0,0.0,90,0.00,,SCT120,0.00,VWS V14.01,2013-09-24 04:37:00,
2013-09-24 00:38:00,78.1,74.9,29.97,North,0,0.0,0.0,90,0.00,,SCT120,0.00,VWS V14.01,2013-09-24 04:38:00,
2013-09-24 00:41:00,78.1,74.9,29.97,North,0,0.0,0.0,90,0.00,,SCT120,0.00,VWS V14.01,2013-09-24 04:41:00,
2013-09-24 00:42:00,78.1,74.9,29.97,North,0,0.0,0.0,90,0.00,,SCT120,0.00,VWS V14.01,2013-09-24 04:42:00,
2013-09-24 00:44:00,78.3,75.4,29.97,North,0,0.0,0.0,91,0.00,,SCT120,0.00,VWS V14.01,2013-09-24 04:44:00,
2013-09-24 00:47:00,78.3,75.4,29.97,North,0,0.0,0.0,91,0.00,,SCT120,0.00,VWS V14.01,2013-09-24 04:47:00,
2013-09-24 00:48:00,78.3,75.4,29.97,North,0,0.0,0.0,91,0.00,,SCT120,0.00,VWS V14.01,2013-09-24 04:48:00,
2013-09-24 00:50:00,78.3,75.4,29.97,North,0,0.0,0.0,91,0.00,,SCT120,0.00,VWS V14.01,2013-09-24 04:50:00,
2013-09-24 00:52:00,78.3,75.4,29.97,North,0,0.0,0.0,91,0.00,,SCT120,0.00,VWS V14.01,2013-09-24 04:52:00,
2013-09-24 00:53:00,78.3,75.4,29.97,North,0,0.0,0.0,91,0.00,,SCT120,0.00,VWS V14.01,2013-09-24 04:53:00,
2013-09-24 00:54:00,78.3,75.4,29.97,North,0,0.0,0.0,91,0.00,,SCT120,0.00,VWS V14.01,2013-09-24 04:54:00,
2013-09-24 00:57:00,78.3,75.4,29.97,North,0,0.0,0.0,91,0.00,,SCT120,0.00,VWS V14.01,2013-09-24 04:57:00,
2013-09-24 00:59:00,78.3,75.4,29.97,North,0,0.0,0.0,91,0.00,,SCT120,0.00,VWS V14.01,2013-09-24 04:59:00,
2013-09-24 01:00:00,78.3,75.4,29.97,North,0,0.0,0.0,91,0.00,,SCT120,0.00,VWS V14.01,2013-09-24 05:00:00,
2013-09-24 01:01:00,78.3,75.4,29.97,North,0,0.0,0.0,91,0.00,,SCT120,0.00,VWS V14.01,2013-09-24 05:01:00,
2013-09-24 01:02:00,78.3,75.4,29.97,North,0,0.0,0.0,91,0.00,,SCT120,0.00,VWS V14.01,2013-09-24 05:02:00,
2013-09-24 01:03:00,78.3,75.4,29.97,North,0,0.0,0.0,91,0.00,,SCT120,0.00,VWS V14.01,2013-09-24 05:03:00,
2013-09-24 01:06:00,78.1,75.2,29.97,North,0,0.0,0.0,91,0.00,,SCT120,0.00,VWS V14.01,2013-09-24 05:06:00,
2013-09-24 01:07:00,78.1,75.2,29.97,North,0,0.0,0.0,91,0.00,,SCT120,0.00,VWS V14.01,2013-09-24 05:07:00,
2013-09-24 01:08:00,78.1,75.2,29.97,North,0,0.0,0.0,91,0.00,,SCT120,0.00,VWS V14.01,2013-09-24 05:08:00,
2013-09-24 01:12:00,78.1,75.2,29.97,North,0,0.0,0.0,91,0.00,,SCT120,0.00,VWS V14.01,2013-09-24 05:12:00,
2013-09-24 01:13:00,78.1,75.2,29.97,North,0,0.0,0.0,91,0.00,,SCT120,0.00,VWS V14.01,2013-09-24 05:13:00,
2013-09-24 01:14:00,78.1,75.2,29.97,North,0,0.0,0.0,91,0.00,,SCT120,0.00,VWS V14.01,2013-09-24 05:14:00,
2013-09-24 01:18:00,78.1,75.2,29.97,North,0,0.0,0.0,91,0.00,,SCT120,0.00,VWS V14.01,2013-09-24 05:18:00,
2013-09-24 01:19:00,78.1,75.2,29.97,North,0,0.0,0.0,91,0.00,,SCT120,0.00,VWS V14.01,2013-09-24 05:19:00,
2013-09-24 01:20:00,78.1,75.2,29.97,North,0,0.0,0.0,91,0.00,,SCT120,0.00,VWS V14.01,2013-09-24 05:20:00,
2013-09-24 01:24:00,77.9,75.1,29.97,North,0,0.0,0.0,91,0.00,,SCT120,0.00,VWS V14.01,2013-09-24 05:24:00,
2013-09-24 01:25:00,77.9,75.1,29.97,North,0,0.0,0.0,91,0.00,,SCT120,0.00,VWS V14.01,2013-09-24 05:25:00,
2013-09-24 01:27:00,77.9,75.1,29.97,North,0,0.0,0.0,91,0.00,,SCT120,0.00,VWS V14.01,2013-09-24 05:27:00,
2013-09-24 01:30:00,77.7,74.9,29.97,North,0,0.0,0.0,91,0.00,,SCT120,0.00,VWS V14.01,2013-09-24 05:30:00,
2013-09-24 01:32:00,77.7,74.9,29.97,North,0,0.0,0.0,91,0.00,,SCT120,0.00,VWS V14.01,2013-09-24 05:32:00,
2013-09-24 01:33:00,77.7,74.9,29.97,North,0,0.0,0.0,91,0.00,,SCT120,0.00,VWS V14.01,2013-09-24 05:33:00,
2013-09-24 01:35:00,77.7,75.2,29.97,North,0,0.0,0.0,92,0.00,,SCT120,0.00,VWS V14.01,2013-09-24 05:35:00,
2013-09-24 01:36:00,77.7,75.2,29.97,North,0,0.0,0.0,92,0.00,,SCT120,0.00,VWS V14.01,2013-09-24 05:36:00,
2013-09-24 01:37:00,77.7,75.2,29.97,North,0,0.0,0.0,92,0.00,,SCT120,0.00,VWS V14.01,2013-09-24 05:37:00,
2013-09-24 01:38:00,77.7,75.2,29.97,North,0,0.0,0.0,92,0.00,,SCT120,0.00,VWS V14.01,2013-09-24 05:38:00,
2013-09-24 01:39:00,77.7,75.2,29.97,North,0,0.0,0.0,92,0.00,,SCT120,0.00,VWS V14.01,2013-09-24 05:39:00,
2013-09-24 01:43:00,77.7,75.2,29.97,North,0,0.0,0.0,92,0.00,,SCT120,0.00,VWS V14.01,2013-09-24 05:43:00,
2013-09-24 01:44:00,77.7,75.2,29.97,North,0,0.0,0.0,92,0.00,,SCT120,0.00,VWS V14.01,2013-09-24 05:44:00,
2013-09-24 01:45:00,77.7,75.2,29.97,North,0,0.0,0.0,92,0.00,,SCT120,0.00,VWS V14.01,2013-09-24 05:45:00,
2013-09-24 01:48:00,77.7,75.2,29.97,North,0,0.0,0.0,92,0.00,,SCT120,0.00,VWS V14.01,2013-09-24 05:48:00,
2013-09-24 01:49:00,77.7,75.2,29.97,North,0,0.0,0.0,92,0.00,,SCT120,0.00,VWS V14.01,2013-09-24 05:49:00,
2013-09-24 01:50:00,77.7,75.2,29.97,North,0,0.0,0.0,92,0.00,,SCT120,0.00,VWS V14.01,2013-09-24 05:50:00,
2013-09-24 01:54:00,77.7,75.2,29.97,North,0,0.0,0.0,92,0.00,,SCT120,0.00,VWS V14.01,2013-09-24 05:54:00,
2013-09-24 01:55:00,77.7,75.2,29.97,North,0,0.0,0.0,92,0.00,,SCT120,0.00,VWS V14.01,2013-09-24 05:55:00,
2013-09-24 01:57:00,77.7,75.2,29.97,North,0,0.0,0.0,92,0.00,,SCT120,0.00,VWS V14.01,2013-09-24 05:57:00,
2013-09-24 01:59:00,77.7,75.2,29.97,North,0,0.0,0.0,92,0.00,,SCT120,0.00,VWS V14.01,2013-09-24 05:59:00,
2013-09-24 02:00:00,77.7,75.2,29.97,North,0,0.0,0.0,92,0.00,,SCT120,0.00,VWS V14.01,2013-09-24 06:00:00,
2013-09-24 02:04:00,77.7,75.2,29.97,North,0,0.0,0.0,92,0.00,,SCT120,0.00,VWS V14.01,2013-09-24 06:04:00,
2013-09-24 02:05:00,77.7,75.2,29.97,North,0,0.0,0.0,92,0.00,,SCT120,0.00,VWS V14.01,2013-09-24 06:05:00,
2013-09-24 02:08:00,77.7,75.2,29.97,North,0,0.0,0.0,92,0.00,,SCT120,0.00,VWS V14.01,2013-09-24 06:08:00,
2013-09-24 02:10:00,77.7,75.2,29.97,North,0,0.0,0.0,92,0.00,,SCT120,0.00,VWS V14.01,2013-09-24 06:10:00,
2013-09-24 02:11:00,77.5,75.0,29.97,North,0,0.0,0.0,92,0.00,,SCT120,0.00,VWS V14.01,2013-09-24 06:11:00,
2013-09-24 02:16:00,77.5,75.0,29.97,North,0,0.0,0.0,92,0.00,,SCT120,0.00,VWS V14.01,2013-09-24 06:16:00,
2013-09-24 02:17:00,77.5,75.0,29.97,North,0,0.0,0.0,92,0.00,,SCT120,0.00,VWS V14.01,2013-09-24 06:17:00,
2013-09-24 02:18:00,77.5,75.0,29.97,North,0,0.0,0.0,92,0.00,,SCT120,0.00,VWS V14.01,2013-09-24 06:18:00,
2013-09-24 02:19:00,77.5,75.0,29.97,North,0,0.0,0.0,92,0.00,,SCT120,0.00,VWS V14.01,2013-09-24 06:19:00,
2013-09-24 02:21:00,77.5,75.0,29.97,North,0,0.0,0.0,92,0.00,,SCT120,0.00,VWS V14.01,2013-09-24 06:21:00,
2013-09-24 02:22:00,77.5,75.0,29.97,North,0,0.0,0.0,92,0.00,,SCT120,0.00,VWS V14.01,2013-09-24 06:22:00,
2013-09-24 02:24:00,77.5,75.0,29.97,North,0,0.0,0.0,92,0.00,,SCT120,0.00,VWS V14.01,2013-09-24 06:24:00,
2013-09-24 02:25:00,77.5,75.0,29.97,North,0,0.0,0.0,92,0.00,,SCT120,0.00,VWS V14.01,2013-09-24 06:25:00,
2013-09-24 02:27:00,77.5,75.0,29.97,North,0,0.0,0.0,92,0.00,,SCT120,0.00,VWS V14.01,2013-09-24 06:27:00,
2013-09-24 02:29:00,77.5,75.0,29.97,North,0,0.0,0.0,92,0.00,,SCT120,0.00,VWS V14.01,2013-09-24 06:29:00,
2013-09-24 02:30:00,77.5,75.0,29.97,North,0,0.0,0.0,92,0.00,,SCT120,0.00,VWS V14.01,2013-09-24 06:30:00,
2013-09-24 02:31:00,77.5,75.0,29.97,North,0,0.0,0.0,92,0.00,,SCT120,0.00,VWS V14.01,2013-09-24 06:31:00,
2013-09-24 02:35:00,77.5,75.0,29.97,North,0,0.0,0.0,92,0.00,,SCT120,0.00,VWS V14.01,2013-09-24 06:35:00,
2013-09-24 02:36:00,77.5,75.0,29.97,North,0,0.0,0.0,92,0.00,,SCT120,0.00,VWS V14.01,2013-09-24 06:36:00,
2013-09-24 02:37:00,77.5,75.0,29.97,North,0,0.0,0.0,92,0.00,,SCT120,0.00,VWS V14.01,2013-09-24 06:37:00,
2013-09-24 02:38:00,77.5,75.0,29.97,North,0,0.0,0.0,92,0.00,,SCT120,0.00,VWS V14.01,2013-09-24 06:38:00,
2013-09-24 02:41:00,77.4,74.9,29.97,North,0,0.0,0.0,92,0.00,,SCT120,0.00,VWS V14.01,2013-09-24 06:41:00,
2013-09-24 02:44:00,77.4,74.9,29.97,North,0,0.0,0.0,92,0.00,,SCT120,0.00,VWS V14.01,2013-09-24 06:44:00,
2013-09-24 02:45:00,77.4,74.9,29.97,North,0,0.0,0.0,92,0.00,,SCT120,0.00,VWS V14.01,2013-09-24 06:45:00,
2013-09-24 02:46:00,77.2,74.7,29.97,North,0,0.0,0.0,92,0.00,,SCT120,0.00,VWS V14.01,2013-09-24 06:46:00,
2013-09-24 02:50:00,77.2,74.7,29.97,North,0,0.0,0.0,92,0.00,,SCT120,0.00,VWS V14.01,2013-09-24 06:50:00,
2013-09-24 02:51:00,77.2,74.7,29.97,North,0,0.0,0.0,92,0.00,,SCT120,0.00,VWS V14.01,2013-09-24 06:51:00,
2013-09-24 02:53:00,77.0,74.5,29.97,North,0,0.0,0.0,92,0.00,,SCT120,0.00,VWS V14.01,2013-09-24 06:53:00,
2013-09-24 02:57:00,77.0,74.5,29.97,North,0,0.0,0.0,92,0.00,,SCT120,0.00,VWS V14.01,2013-09-24 06:57:00,
2013-09-24 02:58:00,77.0,74.5,29.97,North,0,0.0,0.0,92,0.00,,SCT120,0.00,VWS V14.01,2013-09-24 06:58:00,
2013-09-24 02:59:00,77.0,74.5,29.97,North,0,0.0,0.0,92,0.00,,SCT120,0.00,VWS V14.01,2013-09-24 06:59:00,
2013-09-24 03:00:00,77.0,74.5,29.97,North,0,0.0,0.0,92,0.00,,SCT120,0.00,VWS V14.01,2013-09-24 07:00:00,
2013-09-24 03:02:00,77.0,74.5,29.97,North,0,0.0,0.0,92,0.00,,SCT120,0.00,VWS V14.01,2013-09-24 07:02:00,
2013-09-24 03:03:00,77.0,74.5,29.97,North,0,0.0,0.0,92,0.00,,SCT120,0.00,VWS V14.01,2013-09-24 07:03:00,
2013-09-24 03:06:00,77.0,74.5,29.97,North,0,0.0,0.0,92,0.00,,SCT120,0.00,VWS V14.01,2013-09-24 07:06:00,
2013-09-24 03:08:00,77.0,74.5,29.97,North,0,0.0,0.0,92,0.00,,SCT120,0.00,VWS V14.01,2013-09-24 07:08:00,
2013-09-24 03:11:00,77.0,74.5,29.97,North,0,0.0,0.0,92,0.00,,SCT120,0.00,VWS V14.01,2013-09-24 07:11:00,
2013-09-24 03:12:00,77.0,74.5,29.97,North,0,0.0,0.0,92,0.00,,SCT120,0.00,VWS V14.01,2013-09-24 07:12:00,
2013-09-24 03:14:00,77.0,74.5,29.94,North,0,0.0,0.0,92,0.00,,SCT120,0.00,VWS V14.01,2013-09-24 07:14:00,
2013-09-24 03:16:00,77.0,74.5,29.94,North,0,0.0,0.0,92,0.00,,SCT120,0.00,VWS V14.01,2013-09-24 07:16:00,
2013-09-24 03:18:00,77.0,74.5,29.94,North,0,0.0,0.0,92,0.00,,SCT120,0.00,VWS V14.01,2013-09-24 07:18:00,
2013-09-24 03:19:00,77.0,74.5,29.94,North,0,0.0,0.0,92,0.00,,SCT120,0.00,VWS V14.01,2013-09-24 07:19:00,
2013-09-24 03:20:00,77.0,74.5,29.94,North,0,0.0,0.0,92,0.00,,SCT120,0.00,VWS V14.01,2013-09-24 07:20:00,
2013-09-24 03:23:00,77.0,74.5,29.94,North,0,0.0,0.0,92,0.00,,SCT120,0.00,VWS V14.01,2013-09-24 07:23:00,
2013-09-24 03:25:00,77.0,74.5,29.94,North,0,0.0,0.0,92,0.00,,SCT120,0.00,VWS V14.01,2013-09-24 07:25:00,
2013-09-24 03:26:00,77.0,74.5,29.94,North,0,0.0,0.0,92,0.00,,SCT120,0.00,VWS V14.01,2013-09-24 07:26:00,
2013-09-24 03:29:00,77.0,74.5,29.94,North,0,0.0,0.0,92,0.00,,SCT120,0.00,VWS V14.01,2013-09-24 07:29:00,
2013-09-24 03:30:00,77.0,74.5,29.94,North,0,0.0,0.0,92,0.00,,SCT120,0.00,VWS V14.01,2013-09-24 07:30:00,
2013-09-24 03:34:00,77.0,74.5,29.94,North,0,0.0,0.0,92,0.00,,SCT120,0.00,VWS V14.01,2013-09-24 07:34:00,
2013-09-24 03:35:00,77.0,74.5,29.94,North,0,0.0,0.0,92,0.00,,SCT120,0.00,VWS V14.01,2013-09-24 07:35:00,
2013-09-24 03:37:00,77.0,74.5,29.94,North,0,0.0,0.0,92,0.00,,SCT120,0.00,VWS V14.01,2013-09-24 07:37:00,
2013-09-24 03:38:00,77.0,74.5,29.94,North,0,0.0,0.0,92,0.00,,SCT120,0.00,VWS V14.01,2013-09-24 07:38:00,
2013-09-24 03:42:00,77.0,74.5,29.94,North,0,0.0,0.0,92,0.00,,SCT120,0.00,VWS V14.01,2013-09-24 07:42:00,
2013-09-24 03:43:00,77.0,74.5,29.94,North,0,0.0,0.0,92,0.00,,SCT120,0.00,VWS V14.01,2013-09-24 07:43:00,
2013-09-24 03:45:00,77.0,74.5,29.94,North,0,0.0,0.0,92,0.00,,BKN049,0.00,VWS V14.01,2013-09-24 07:45:00,
2013-09-24 03:46:00,77.0,74.5,29.94,North,0,0.0,0.0,92,0.00,,BKN049,0.00,VWS V14.01,2013-09-24 07:46:00,
2013-09-24 03:47:00,77.0,74.5,29.94,North,0,0.0,0.0,92,0.00,,BKN049,0.00,VWS V14.01,2013-09-24 07:47:00,
2013-09-24 03:48:00,77.0,74.5,29.94,North,0,0.0,0.0,92,0.00,,BKN049,0.00,VWS V14.01,2013-09-24 07:48:00,
2013-09-24 03:50:00,77.0,74.5,29.94,North,0,0.0,0.0,92,0.00,,BKN049,0.00,VWS V14.01,2013-09-24 07:50:00,
2013-09-24 03:51:00,77.0,74.5,29.94,North,0,0.0,0.0,92,0.00,,BKN049,0.00,VWS V14.01,2013-09-24 07:51:00,
2013-09-24 03:55:00,77.0,74.5,29.94,North,0,0.0,0.0,92,0.00,,BKN049,0.00,VWS V14.01,2013-09-24 07:55:00,
2013-09-24 03:56:00,77.0,74.5,29.94,North,0,0.0,0.0,92,0.00,,BKN049,0.00,VWS V14.01,2013-09-24 07:56:00,
2013-09-24 03:59:00,76.8,74.3,29.94,North,0,0.0,0.0,92,0.00,,BKN049,0.00,VWS V14.01,2013-09-24 07:59:00,
2013-09-24 04:01:00,76.8,74.3,29.94,North,0,0.0,0.0,92,0.00,,BKN049,0.00,VWS V14.01,2013-09-24 08:01:00,
2013-09-24 04:05:00,76.8,74.3,29.94,North,0,0.0,0.0,92,0.00,,BKN090,0.00,VWS V14.01,2013-09-24 08:05:00,
2013-09-24 04:06:00,77.0,74.5,29.94,North,0,0.0,0.0,92,0.00,,BKN090,0.00,VWS V14.01,2013-09-24 08:06:00,
2013-09-24 04:08:00,77.0,74.5,29.94,North,0,0.0,0.0,92,0.00,,BKN090,0.00,VWS V14.01,2013-09-24 08:08:00,
2013-09-24 04:09:00,77.0,74.5,29.94,North,0,0.0,0.0,92,0.00,,BKN090,0.00,VWS V14.01,2013-09-24 08:09:00,
2013-09-24 04:11:00,77.0,74.5,29.94,North,0,0.0,0.0,92,0.00,,BKN090,0.00,VWS V14.01,2013-09-24 08:11:00,
2013-09-24 04:13:00,77.0,74.5,29.94,North,0,0.0,0.0,92,0.00,,BKN090,0.00,VWS V14.01,2013-09-24 08:13:00,
2013-09-24 04:15:00,77.0,74.5,29.91,North,0,0.0,0.0,92,0.00,,BKN090,0.00,VWS V14.01,2013-09-24 08:15:00,
2013-09-24 04:16:00,77.0,74.5,29.91,North,0,0.0,0.0,92,0.00,,BKN090,0.00,VWS V14.01,2013-09-24 08:16:00,
2013-09-24 04:17:00,77.0,74.5,29.91,North,0,0.0,0.0,92,0.00,,BKN090,0.00,VWS V14.01,2013-09-24 08:17:00,
2013-09-24 04:18:00,77.0,74.5,29.91,North,0,0.0,0.0,92,0.00,,BKN090,0.00,VWS V14.01,2013-09-24 08:18:00,
2013-09-24 04:22:00,77.0,74.5,29.91,North,0,0.0,0.0,92,0.00,,BKN090,0.00,VWS V14.01,2013-09-24 08:22:00,
2013-09-24 04:23:00,77.0,74.5,29.91,North,0,0.0,0.0,92,0.00,,BKN090,0.00,VWS V14.01,2013-09-24 08:23:00,
2013-09-24 04:24:00,77.0,74.5,29.91,North,0,0.0,0.0,92,0.00,,BKN090,0.00,VWS V14.01,2013-09-24 08:24:00,
2013-09-24 04:25:00,77.0,74.5,29.91,North,0,0.0,0.0,92,0.00,,BKN090,0.00,VWS V14.01,2013-09-24 08:25:00,
2013-09-24 04:27:00,77.0,74.5,29.91,North,0,0.0,0.0,92,0.00,,BKN090,0.00,VWS V14.01,2013-09-24 08:27:00,
2013-09-24 04:30:00,77.0,74.5,29.94,North,0,0.0,0.0,92,0.00,,BKN090,0.00,VWS V14.01,2013-09-24 08:30:00,
2013-09-24 04:32:00,77.0,74.5,29.94,North,0,0.0,0.0,92,0.00,,BKN090,0.00,VWS V14.01,2013-09-24 08:32:00,
2013-09-24 04:33:00,77.0,74.5,29.94,North,0,0.0,0.0,92,0.00,,BKN090,0.00,VWS V14.01,2013-09-24 08:33:00,
2013-09-24 04:34:00,76.8,74.7,29.94,North,0,0.0,0.0,93,0.00,,BKN090,0.00,VWS V14.01,2013-09-24 08:34:00,
2013-09-24 04:35:00,76.8,74.7,29.94,North,0,0.0,0.0,93,0.00,,BKN090,0.00,VWS V14.01,2013-09-24 08:35:00,
2013-09-24 04:38:00,76.8,74.7,29.94,North,0,0.0,0.0,93,0.00,,BKN090,0.00,VWS V14.01,2013-09-24 08:38:00,
2013-09-24 04:39:00,77.0,74.5,29.94,North,0,0.0,0.0,92,0.00,,BKN090,0.00,VWS V14.01,2013-09-24 08:39:00,
2013-09-24 04:40:00,77.0,74.5,29.94,North,0,0.0,0.0,92,0.00,,BKN090,0.00,VWS V14.01,2013-09-24 08:40:00,
2013-09-24 04:44:00,77.0,74.5,29.94,North,0,0.0,0.0,92,0.00,,BKN090,0.00,VWS V14.01,2013-09-24 08:44:00,
2013-09-24 04:45:00,77.0,74.5,29.94,North,0,0.0,0.0,92,0.00,,BKN090,0.00,VWS V14.01,2013-09-24 08:45:00,
2013-09-24 04:46:00,77.0,74.5,29.94,North,0,0.0,0.0,92,0.00,,BKN090,0.00,VWS V14.01,2013-09-24 08:46:00,
2013-09-24 04:49:00,77.0,74.5,29.94,North,0,0.0,0.0,92,0.00,,BKN090,0.00,VWS V14.01,2013-09-24 08:49:00,
2013-09-24 04:51:00,77.0,74.5,29.94,North,0,0.0,0.0,92,0.00,,BKN090,0.00,VWS V14.01,2013-09-24 08:51:00,
2013-09-24 04:53:00,77.0,74.5,29.94,North,0,0.0,0.0,92,0.00,,BKN090,0.00,VWS V14.01,2013-09-24 08:53:00,
2013-09-24 04:54:00,77.0,74.5,29.94,North,0,0.0,0.0,92,0.00,,BKN090,0.00,VWS V14.01,2013-09-24 08:54:00,
2013-09-24 04:58:00,77.0,74.5,29.94,North,0,0.0,0.0,92,0.00,,BKN090,0.00,VWS V14.01,2013-09-24 08:58:00,
2013-09-24 04:59:00,77.0,74.5,29.94,North,0,0.0,0.0,92,0.00,,BKN090,0.00,VWS V14.01,2013-09-24 08:59:00,
2013-09-24 05:02:00,77.0,74.5,29.94,North,0,0.0,0.0,92,0.00,,BKN090,0.00,VWS V14.01,2013-09-24 09:02:00,
2013-09-24 05:05:00,77.0,74.5,29.94,North,0,0.0,0.0,92,0.00,,BKN090,0.00,VWS V14.01,2013-09-24 09:05:00,
2013-09-24 05:06:00,77.0,74.5,29.94,North,0,0.0,0.0,92,0.00,,BKN090,0.00,VWS V14.01,2013-09-24 09:06:00,
2013-09-24 05:07:00,77.0,74.5,29.94,North,0,0.0,0.0,92,0.00,,BKN090,0.00,VWS V14.01,2013-09-24 09:07:00,
2013-09-24 05:08:00,77.0,74.5,29.94,North,0,0.0,0.0,92,0.00,,BKN090,0.00,VWS V14.01,2013-09-24 09:08:00,
2013-09-24 05:11:00,77.0,74.5,29.94,North,0,0.0,0.0,92,0.00,,BKN090,0.00,VWS V14.01,2013-09-24 09:11:00,
2013-09-24 05:12:00,77.0,74.5,29.94,North,0,0.0,0.0,92,0.00,,BKN090,0.00,VWS V14.01,2013-09-24 09:12:00,
2013-09-24 05:13:00,77.0,74.5,29.94,North,0,0.0,0.0,92,0.00,,BKN090,0.00,VWS V14.01,2013-09-24 09:13:00,
2013-09-24 05:14:00,77.0,74.5,29.94,North,0,0.0,0.0,92,0.00,,BKN090,0.00,VWS V14.01,2013-09-24 09:14:00,
2013-09-24 05:17:00,77.0,74.5,29.94,North,0,0.0,0.0,92,0.00,,BKN090,0.00,VWS V14.01,2013-09-24 09:17:00,
2013-09-24 05:18:00,77.0,74.5,29.94,North,0,0.0,0.0,92,0.00,,BKN090,0.00,VWS V14.01,2013-09-24 09:18:00,
2013-09-24 05:20:00,77.0,74.5,29.94,North,0,0.0,0.0,92,0.00,,BKN090,0.00,VWS V14.01,2013-09-24 09:20:00,
2013-09-24 05:22:00,77.0,74.5,29.94,North,0,0.0,0.0,92,0.00,,BKN090,0.00,VWS V14.01,2013-09-24 09:22:00,
2013-09-24 05:23:00,77.0,74.5,29.94,North,0,0.0,0.0,92,0.00,,BKN090,0.00,VWS V14.01,2013-09-24 09:23:00,
2013-09-24 05:25:00,77.0,74.5,29.94,North,0,0.0,0.0,92,0.00,,BKN090,0.00,VWS V14.01,2013-09-24 09:25:00,
2013-09-24 05:26:00,77.0,74.5,29.94,North,0,0.0,0.0,92,0.00,,BKN090,0.00,VWS V14.01,2013-09-24 09:26:00,
2013-09-24 05:28:00,77.0,74.5,29.94,North,0,0.0,0.0,92,0.00,,BKN090,0.00,VWS V14.01,2013-09-24 09:28:00,
2013-09-24 05:30:00,77.0,74.5,29.94,North,0,0.0,0.0,92,0.00,,BKN090,0.00,VWS V14.01,2013-09-24 09:30:00,
2013-09-24 05:31:00,77.0,74.5,29.94,North,0,0.0,0.0,92,0.00,,BKN090,0.00,VWS V14.01,2013-09-24 09:31:00,
2013-09-24 05:33:00,77.0,74.5,29.94,North,0,0.0,0.0,92,0.00,,BKN090,0.00,VWS V14.01,2013-09-24 09:33:00,
2013-09-24 05:36:00,77.0,74.5,29.94,North,0,0.0,0.0,92,0.00,,BKN090,0.00,VWS V14.01,2013-09-24 09:36:00,
2013-09-24 05:37:00,77.0,74.5,29.94,North,0,0.0,0.0,92,0.00,,BKN090,0.00,VWS V14.01,2013-09-24 09:37:00,
2013-09-24 05:39:00,77.0,74.8,29.94,North,0,0.0,0.0,93,0.00,,BKN090,0.00,VWS V14.01,2013-09-24 09:39:00,
2013-09-24 05:41:00,77.0,74.8,29.94,North,0,0.0,0.0,93,0.00,,BKN090,0.00,VWS V14.01,2013-09-24 09:41:00,
2013-09-24 05:42:00,77.0,74.8,29.94,North,0,0.0,0.0,93,0.00,,BKN090,0.00,VWS V14.01,2013-09-24 09:42:00,
2013-09-24 05:44:00,77.0,74.8,29.94,North,0,0.0,0.0,93,0.00,,BKN090,0.00,VWS V14.01,2013-09-24 09:44:00,
2013-09-24 05:46:00,77.0,74.8,29.94,North,0,0.0,0.0,93,0.00,,BKN090,0.00,VWS V14.01,2013-09-24 09:46:00,
2013-09-24 05:47:00,77.0,74.8,29.94,North,0,0.0,0.0,93,0.00,,BKN090,0.00,VWS V14.01,2013-09-24 09:47:00,
2013-09-24 05:48:00,77.0,74.8,29.94,North,0,0.0,0.0,93,0.00,,BKN090,0.00,VWS V14.01,2013-09-24 09:48:00,
2013-09-24 05:51:00,76.8,74.7,29.94,North,0,0.0,0.0,93,0.00,,BKN090,0.00,VWS V14.01,2013-09-24 09:51:00,
2013-09-24 05:52:00,76.8,74.7,29.94,North,0,0.0,0.0,93,0.00,,BKN090,0.00,VWS V14.01,2013-09-24 09:52:00,
2013-09-24 05:54:00,76.8,74.7,29.94,North,0,0.0,0.0,93,0.00,,BKN090,0.00,VWS V14.01,2013-09-24 09:54:00,
2013-09-24 05:55:00,76.8,74.7,29.94,North,0,0.0,0.0,93,0.00,,BKN090,0.00,VWS V14.01,2013-09-24 09:55:00,
2013-09-24 05:57:00,76.8,74.7,29.94,North,0,0.0,0.0,93,0.00,,BKN090,0.00,VWS V14.01,2013-09-24 09:57:00,
2013-09-24 06:00:00,76.8,74.7,29.94,North,0,0.0,0.0,93,0.00,,BKN090,0.00,VWS V14.01,2013-09-24 10:00:00,
2013-09-24 06:01:00,76.8,74.7,29.94,North,0,0.0,0.0,93,0.00,,BKN090,0.00,VWS V14.01,2013-09-24 10:01:00,
2013-09-24 06:02:00,76.8,74.7,29.94,North,0,0.0,0.0,93,0.00,,BKN090,0.00,VWS V14.01,2013-09-24 10:02:00,
2013-09-24 06:05:00,76.8,74.7,29.94,North,0,0.0,0.0,93,0.00,,BKN090,0.00,VWS V14.01,2013-09-24 10:05:00,
2013-09-24 06:07:00,76.8,74.7,29.94,North,0,0.0,0.0,93,0.00,,BKN090,0.00,VWS V14.01,2013-09-24 10:07:00,
2013-09-24 06:10:00,76.8,74.7,29.94,North,0,0.0,0.0,93,0.00,,BKN090,0.00,VWS V14.01,2013-09-24 10:10:00,
2013-09-24 06:11:00,76.8,74.7,29.94,North,0,0.0,0.0,93,0.00,,BKN090,0.00,VWS V14.01,2013-09-24 10:11:00,
2013-09-24 06:12:00,76.8,74.7,29.94,North,0,0.0,0.0,93,0.00,,BKN090,0.00,VWS V14.01,2013-09-24 10:12:00,
2013-09-24 06:13:00,76.8,74.7,29.94,North,0,0.0,0.0,93,0.00,,BKN090,0.00,VWS V14.01,2013-09-24 10:13:00,
2013-09-24 06:16:00,76.8,74.7,29.94,North,0,0.0,0.0,93,0.00,,BKN090,0.00,VWS V14.01,2013-09-24 10:16:00,
2013-09-24 06:17:00,76.8,74.7,29.94,North,0,0.0,0.0,93,0.00,,BKN090,0.00,VWS V14.01,2013-09-24 10:17:00,
2013-09-24 06:18:00,76.6,74.5,29.94,North,0,0.0,0.0,93,0.00,,BKN090,0.00,VWS V14.01,2013-09-24 10:18:00,
2013-09-24 06:20:00,76.6,74.5,29.94,North,0,0.0,0.0,93,0.00,,BKN090,0.00,VWS V14.01,2013-09-24 10:20:00,
2013-09-24 06:21:00,76.6,74.5,29.94,North,0,0.0,0.0,93,0.00,,BKN090,0.00,VWS V14.01,2013-09-24 10:21:00,
2013-09-24 06:25:00,76.6,74.5,29.94,North,0,0.0,0.0,93,0.00,,BKN090,0.00,VWS V14.01,2013-09-24 10:25:00,
2013-09-24 06:27:00,76.6,74.5,29.94,North,0,0.0,0.0,93,0.00,,BKN090,0.00,VWS V14.01,2013-09-24 10:27:00,
2013-09-24 06:28:00,76.6,74.5,29.94,North,0,0.0,0.0,93,0.00,,BKN090,0.00,VWS V14.01,2013-09-24 10:28:00,
2013-09-24 06:32:00,76.6,74.5,29.94,North,0,0.0,0.0,93,0.00,,BKN090,0.00,VWS V14.01,2013-09-24 10:32:00,
2013-09-24 06:33:00,76.6,74.5,29.94,North,0,0.0,0.0,93,0.00,,BKN090,0.00,VWS V14.01,2013-09-24 10:33:00,
2013-09-24 06:34:00,76.6,74.5,29.94,North,0,0.0,0.0,93,0.00,,BKN090,0.00,VWS V14.01,2013-09-24 10:34:00,
2013-09-24 06:36:00,76.6,74.5,29.94,North,0,0.0,0.0,93,0.00,,BKN090,0.00,VWS V14.01,2013-09-24 10:36:00,
2013-09-24 06:37:00,76.6,74.5,29.94,North,0,0.0,0.0,93,0.00,,BKN090,0.00,VWS V14.01,2013-09-24 10:37:00,
2013-09-24 06:39:00,76.6,74.5,29.94,North,0,0.0,0.0,93,0.00,,BKN090,0.00,VWS V14.01,2013-09-24 10:39:00,
2013-09-24 06:43:00,76.6,74.5,29.94,North,0,0.0,0.0,93,0.00,,BKN090,0.00,VWS V14.01,2013-09-24 10:43:00,
2013-09-24 06:45:00,76.6,74.5,29.94,North,0,0.0,0.0,93,0.00,,BKN090,0.00,VWS V14.01,2013-09-24 10:45:00,
2013-09-24 06:46:00,76.6,74.5,29.94,North,0,0.0,0.0,93,0.00,,BKN090,0.00,VWS V14.01,2013-09-24 10:46:00,
2013-09-24 06:47:00,76.6,74.5,29.94,North,0,0.0,0.0,93,0.00,,BKN090,0.00,VWS V14.01,2013-09-24 10:47:00,
2013-09-24 06:51:00,76.6,74.5,29.94,North,0,0.0,0.0,93,0.00,,BKN090,0.00,VWS V14.01,2013-09-24 10:51:00,
2013-09-24 06:53:00,76.6,74.5,29.94,North,0,0.0,0.0,93,0.00,,BKN090,0.00,VWS V14.01,2013-09-24 10:53:00,
2013-09-24 06:56:00,76.6,74.5,29.94,North,0,0.0,0.0,93,0.00,,BKN090,0.00,VWS V14.01,2013-09-24 10:56:00,
2013-09-24 06:57:00,76.6,74.5,29.94,North,0,0.0,0.0,93,0.00,,BKN090,0.00,VWS V14.01,2013-09-24 10:57:00,
2013-09-24 07:00:00,76.6,74.5,29.94,North,0,0.0,0.0,93,0.00,,BKN090,0.00,VWS V14.01,2013-09-24 11:00:00,
2013-09-24 07:02:00,76.6,74.5,29.94,North,0,0.0,0.0,93,0.00,,BKN090,0.00,VWS V14.01,2013-09-24 11:02:00,
2013-09-24 07:05:00,76.5,74.3,29.94,North,0,0.0,0.0,93,0.00,,BKN090,0.00,VWS V14.01,2013-09-24 11:05:00,
2013-09-24 07:06:00,76.5,74.3,29.94,North,0,0.0,0.0,93,0.00,,BKN090,0.00,VWS V14.01,2013-09-24 11:06:00,
2013-09-24 07:07:00,76.5,74.3,29.94,North,0,0.0,0.0,93,0.00,,BKN090,0.00,VWS V14.01,2013-09-24 11:07:00,
2013-09-24 07:09:00,76.5,74.3,29.94,North,0,0.0,0.0,93,0.00,,BKN090,0.00,VWS V14.01,2013-09-24 11:09:00,
2013-09-24 07:11:00,76.5,74.3,29.94,North,0,0.0,0.0,93,0.00,,BKN090,0.00,VWS V14.01,2013-09-24 11:11:00,
2013-09-24 07:14:00,76.5,74.3,29.94,North,0,0.0,0.0,93,0.00,,BKN090,0.00,VWS V14.01,2013-09-24 11:14:00,
2013-09-24 07:16:00,76.5,74.3,29.94,North,0,0.0,0.0,93,0.00,,BKN090,0.00,VWS V14.01,2013-09-24 11:16:00,
2013-09-24 07:17:00,76.5,74.3,29.94,North,0,0.0,0.0,93,0.00,,BKN090,0.00,VWS V14.01,2013-09-24 11:17:00,
2013-09-24 07:18:00,76.5,74.3,29.94,North,0,0.0,0.0,93,0.00,,BKN090,0.00,VWS V14.01,2013-09-24 11:18:00,
2013-09-24 07:19:00,76.5,74.3,29.94,North,0,0.0,0.0,93,0.00,,BKN090,0.00,VWS V14.01,2013-09-24 11:19:00,
2013-09-24 07:20:00,76.5,74.3,29.94,North,0,0.0,0.0,93,0.00,,BKN090,0.00,VWS V14.01,2013-09-24 11:20:00,
2013-09-24 07:23:00,76.5,74.3,29.94,North,0,0.0,0.0,93,0.00,,BKN090,0.00,VWS V14.01,2013-09-24 11:23:00,
2013-09-24 07:24:00,76.5,74.3,29.94,North,0,0.0,0.0,93,0.00,,BKN090,0.00,VWS V14.01,2013-09-24 11:24:00,
2013-09-24 07:25:00,76.5,74.3,29.94,North,0,0.0,0.0,93,0.00,,BKN090,0.00,VWS V14.01,2013-09-24 11:25:00,
2013-09-24 07:27:00,76.5,74.3,29.94,North,0,0.0,0.0,93,0.00,,BKN090,0.00,VWS V14.01,2013-09-24 11:27:00,
2013-09-24 07:28:00,76.5,74.3,29.94,North,0,0.0,0.0,93,0.00,,BKN090,0.00,VWS V14.01,2013-09-24 11:28:00,
2013-09-24 07:32:00,76.5,74.3,29.94,North,0,0.0,0.0,93,0.00,,BKN090,0.00,VWS V14.01,2013-09-24 11:32:00,
2013-09-24 07:33:00,76.5,74.3,29.94,North,0,0.0,0.0,93,0.00,,BKN090,0.00,VWS V14.01,2013-09-24 11:33:00,
2013-09-24 07:34:00,76.5,74.3,29.94,North,0,0.0,0.0,93,0.00,,BKN090,0.00,VWS V14.01,2013-09-24 11:34:00,
2013-09-24 07:35:00,76.5,74.3,29.94,North,0,0.0,0.0,93,0.00,,BKN090,0.00,VWS V14.01,2013-09-24 11:35:00,
2013-09-24 07:36:00,76.5,74.6,29.94,North,0,0.0,0.0,94,0.00,,BKN090,0.00,VWS V14.01,2013-09-24 11:36:00,
2013-09-24 07:38:00,76.6,74.8,29.94,North,0,0.0,0.0,94,0.00,,BKN090,0.00,VWS V14.01,2013-09-24 11:38:00,
2013-09-24 07:40:00,76.6,74.8,29.94,North,0,0.0,0.0,94,0.00,,BKN090,0.00,VWS V14.01,2013-09-24 11:40:00,
2013-09-24 07:41:00,76.6,74.8,29.94,North,0,0.0,0.0,94,0.00,,BKN090,0.00,VWS V14.01,2013-09-24 11:41:00,
2013-09-24 07:42:00,76.6,74.8,29.94,North,0,0.0,0.0,94,0.00,,BKN090,0.00,VWS V14.01,2013-09-24 11:42:00,
2013-09-24 07:43:00,76.6,74.8,29.94,North,0,0.0,0.0,94,0.00,,BKN090,0.00,VWS V14.01,2013-09-24 11:43:00,
2013-09-24 07:46:00,76.6,74.8,29.94,North,0,0.0,0.0,94,0.00,,BKN090,0.00,VWS V14.01,2013-09-24 11:46:00,
2013-09-24 07:48:00,76.6,74.8,29.94,North,0,0.0,0.0,94,0.00,,BKN090,0.00,VWS V14.01,2013-09-24 11:48:00,
2013-09-24 07:49:00,76.6,74.8,29.94,North,0,0.0,0.0,94,0.00,,BKN090,0.00,VWS V14.01,2013-09-24 11:49:00,
2013-09-24 07:51:00,76.6,74.8,29.94,North,0,0.0,0.0,94,0.00,,BKN090,0.00,VWS V14.01,2013-09-24 11:51:00,
2013-09-24 07:53:00,76.6,74.8,29.94,North,0,0.0,0.0,94,0.00,,BKN090,0.00,VWS V14.01,2013-09-24 11:53:00,
2013-09-24 07:54:00,76.8,75.0,29.94,North,0,0.0,0.0,94,0.00,,BKN090,0.00,VWS V14.01,2013-09-24 11:54:00,
2013-09-24 07:56:00,76.8,75.0,29.94,North,0,0.0,0.0,94,0.00,,BKN090,0.00,VWS V14.01,2013-09-24 11:56:00,
2013-09-24 08:00:00,76.8,75.0,29.94,North,0,0.0,0.0,94,0.00,,BKN090,0.00,VWS V14.01,2013-09-24 12:00:00,
2013-09-24 08:03:00,76.8,75.0,29.94,North,0,0.0,0.0,94,0.00,,BKN090,0.00,VWS V14.01,2013-09-24 12:03:00,
2013-09-24 08:05:00,76.8,75.0,29.94,North,0,0.0,0.0,94,0.00,,BKN090,0.00,VWS V14.01,2013-09-24 12:05:00,
2013-09-24 08:06:00,76.8,75.0,29.94,North,0,0.0,0.0,94,0.00,,BKN090,0.00,VWS V14.01,2013-09-24 12:06:00,
2013-09-24 08:08:00,77.0,74.8,29.94,North,0,0.0,0.0,93,0.00,,BKN090,0.00,VWS V14.01,2013-09-24 12:08:00,
2013-09-24 08:11:00,77.0,74.8,29.94,North,0,0.0,0.0,93,0.00,,BKN090,0.00,VWS V14.01,2013-09-24 12:11:00,
2013-09-24 08:13:00,77.0,75.1,29.94,North,0,0.0,0.0,94,0.00,,BKN090,0.00,VWS V14.01,2013-09-24 12:13:00,
2013-09-24 08:15:00,77.0,75.1,29.97,North,0,0.0,0.0,94,0.00,,BKN090,0.00,VWS V14.01,2013-09-24 12:15:00,
2013-09-24 08:18:00,77.0,75.1,29.97,North,0,0.0,0.0,94,0.00,,BKN090,0.00,VWS V14.01,2013-09-24 12:18:00,
2013-09-24 08:20:00,77.2,75.3,29.97,North,0,0.0,0.0,94,0.00,,BKN090,0.00,VWS V14.01,2013-09-24 12:20:00,
2013-09-24 08:22:00,77.2,75.3,29.97,North,0,0.0,0.0,94,0.00,,BKN090,0.00,VWS V14.01,2013-09-24 12:22:00,
2013-09-24 08:25:00,77.2,75.3,29.97,North,0,0.0,0.0,94,0.00,,BKN090,0.00,VWS V14.01,2013-09-24 12:25:00,
2013-09-24 08:26:00,77.4,75.5,29.97,North,0,0.0,0.0,94,0.00,,BKN090,0.00,VWS V14.01,2013-09-24 12:26:00,
2013-09-24 08:27:00,77.4,75.5,29.97,North,0,0.0,0.0,94,0.00,,BKN090,0.00,VWS V14.01,2013-09-24 12:27:00,
2013-09-24 08:30:00,77.4,75.5,29.97,North,0,0.0,0.0,94,0.00,,BKN090,0.00,VWS V14.01,2013-09-24 12:30:00,
2013-09-24 08:32:00,77.4,75.5,29.97,North,0,0.0,0.0,94,0.00,,BKN090,0.00,VWS V14.01,2013-09-24 12:32:00,
2013-09-24 08:33:00,77.5,75.7,29.97,North,0,0.0,0.0,94,0.00,,BKN090,0.00,VWS V14.01,2013-09-24 12:33:00,
2013-09-24 08:34:00,77.5,75.7,29.97,North,0,0.0,0.0,94,0.00,,BKN090,0.00,VWS V14.01,2013-09-24 12:34:00,
2013-09-24 08:37:00,77.5,75.7,29.97,North,0,0.0,0.0,94,0.00,,BKN090,0.00,VWS V14.01,2013-09-24 12:37:00,
2013-09-24 08:38:00,77.5,75.7,29.97,North,0,0.0,0.0,94,0.00,,BKN090,0.00,VWS V14.01,2013-09-24 12:38:00,
2013-09-24 08:39:00,77.5,75.7,29.97,North,0,0.0,0.0,94,0.00,,BKN090,0.00,VWS V14.01,2013-09-24 12:39:00,
2013-09-24 08:41:00,77.7,75.9,29.97,North,0,0.0,0.0,94,0.00,,BKN090,0.00,VWS V14.01,2013-09-24 12:41:00,
2013-09-24 08:42:00,77.7,75.9,29.97,North,0,0.0,0.0,94,0.00,,BKN090,0.00,VWS V14.01,2013-09-24 12:42:00,
2013-09-24 08:44:00,77.7,75.9,29.97,North,0,0.0,0.0,94,0.00,,BKN090,0.00,VWS V14.01,2013-09-24 12:44:00,
2013-09-24 08:47:00,77.9,76.0,29.97,North,0,0.0,0.0,94,0.00,,BKN090,0.00,VWS V14.01,2013-09-24 12:47:00,
2013-09-24 08:48:00,77.9,76.0,29.97,North,0,0.0,0.0,94,0.00,,BKN090,0.00,VWS V14.01,2013-09-24 12:48:00,
2013-09-24 08:49:00,77.9,76.0,29.97,North,0,0.0,0.0,94,0.00,,BKN090,0.00,VWS V14.01,2013-09-24 12:49:00,
2013-09-24 08:52:00,78.1,76.2,29.97,North,0,0.0,0.0,94,0.00,,BKN090,0.00,VWS V14.01,2013-09-24 12:52:00,
2013-09-24 08:54:00,78.1,76.2,29.97,North,0,0.0,0.0,94,0.00,,BKN090,0.00,VWS V14.01,2013-09-24 12:54:00,
2013-09-24 08:55:00,78.1,76.2,29.97,North,0,0.0,0.0,94,0.00,,BKN090,0.00,VWS V14.01,2013-09-24 12:55:00,
2013-09-24 08:57:00,78.1,76.2,29.97,North,0,0.0,0.0,94,0.00,,BKN090,0.00,VWS V14.01,2013-09-24 12:57:00,
2013-09-24 08:58:00,78.3,76.4,29.97,North,0,0.0,0.0,94,0.00,,BKN090,0.00,VWS V14.01,2013-09-24 12:58:00,
2013-09-24 09:00:00,78.3,76.4,29.97,North,0,0.0,0.0,94,0.00,,BKN090,0.00,VWS V14.01,2013-09-24 13:00:00,
2013-09-24 09:01:00,78.3,76.4,29.97,North,0,0.0,0.0,94,0.00,,BKN090,0.00,VWS V14.01,2013-09-24 13:01:00,
2013-09-24 09:05:00,78.4,76.6,29.97,North,0,0.0,0.0,94,0.00,,BKN090,0.00,VWS V14.01,2013-09-24 13:05:00,
2013-09-24 09:06:00,78.4,76.6,29.97,North,0,0.0,0.0,94,0.00,,BKN090,0.00,VWS V14.01,2013-09-24 13:06:00,
2013-09-24 09:10:00,78.6,76.8,29.97,North,0,0.0,0.0,94,0.00,,BKN090,0.00,VWS V14.01,2013-09-24 13:10:00,
2013-09-24 09:11:00,78.6,76.8,29.97,North,0,0.0,0.0,94,0.00,,BKN090,0.00,VWS V14.01,2013-09-24 13:11:00,
2013-09-24 09:13:00,78.8,76.9,29.97,North,0,0.0,0.0,94,0.00,,BKN090,0.00,VWS V14.01,2013-09-24 13:13:00,
2013-09-24 09:15:00,78.8,76.9,29.97,North,0,0.0,0.0,94,0.00,,BKN090,0.00,VWS V14.01,2013-09-24 13:15:00,
2013-09-24 09:18:00,79.0,77.1,29.97,North,0,0.0,0.0,94,0.00,,BKN090,0.00,VWS V14.01,2013-09-24 13:18:00,
2013-09-24 09:20:00,79.2,77.3,29.97,North,0,0.0,0.0,94,0.00,,BKN090,0.00,VWS V14.01,2013-09-24 13:20:00,
2013-09-24 09:21:00,79.2,77.3,29.97,North,0,0.0,0.0,94,0.00,,BKN090,0.00,VWS V14.01,2013-09-24 13:21:00,
2013-09-24 09:25:00,79.3,77.5,29.97,North,0,0.0,0.0,94,0.00,,BKN090,0.00,VWS V14.01,2013-09-24 13:25:00,
2013-09-24 09:26:00,79.3,77.5,29.97,North,0,0.0,0.0,94,0.00,,BKN090,0.00,VWS V14.01,2013-09-24 13:26:00,
2013-09-24 09:27:00,79.3,77.5,29.97,North,0,0.0,0.0,94,0.00,,BKN090,0.00,VWS V14.01,2013-09-24 13:27:00,
2013-09-24 09:29:00,79.5,77.7,29.97,North,0,0.0,0.0,94,0.00,,BKN090,0.00,VWS V14.01,2013-09-24 13:29:00,
2013-09-24 09:32:00,79.7,77.8,29.97,North,0,0.0,0.0,94,0.00,,BKN090,0.00,VWS V14.01,2013-09-24 13:32:00,
2013-09-24 09:33:00,79.7,77.8,29.97,North,0,0.0,0.0,94,0.00,,BKN090,0.00,VWS V14.01,2013-09-24 13:33:00,
2013-09-24 09:35:00,79.7,77.8,29.97,North,0,0.0,0.0,94,0.00,,BKN090,0.00,VWS V14.01,2013-09-24 13:35:00,
2013-09-24 09:38:00,79.9,78.0,29.97,North,0,0.0,0.0,94,0.00,,BKN090,0.00,VWS V14.01,2013-09-24 13:38:00,
2013-09-24 09:39:00,80.1,78.2,29.97,North,0,0.0,0.0,94,0.00,,BKN090,0.00,VWS V14.01,2013-09-24 13:39:00,
2013-09-24 09:40:00,80.1,78.2,29.97,North,0,0.0,0.0,94,0.00,,BKN090,0.00,VWS V14.01,2013-09-24 13:40:00,
2013-09-24 09:41:00,80.1,78.2,29.97,North,0,0.0,0.0,94,0.00,,BKN090,0.00,VWS V14.01,2013-09-24 13:41:00,
2013-09-24 09:45:00,80.4,78.5,29.97,North,0,0.0,0.0,94,0.00,,BKN090,0.00,VWS V14.01,2013-09-24 13:45:00,
2013-09-24 09:47:00,80.4,78.5,29.97,North,0,0.0,0.0,94,0.00,,BKN090,0.00,VWS V14.01,2013-09-24 13:47:00,
2013-09-24 09:52:00,80.8,78.9,29.97,North,0,0.0,0.0,94,0.00,,BKN090,0.00,VWS V14.01,2013-09-24 13:52:00,
2013-09-24 09:53:00,81.0,79.1,29.97,North,0,0.0,0.0,94,0.00,,BKN090,0.00,VWS V14.01,2013-09-24 13:53:00,
2013-09-24 09:55:00,81.1,79.2,29.97,North,0,0.0,0.0,94,0.00,,BKN090,0.00,VWS V14.01,2013-09-24 13:55:00,
2013-09-24 09:57:00,81.1,79.2,29.97,North,0,0.0,0.0,94,0.00,,BKN090,0.00,VWS V14.01,2013-09-24 13:57:00,
2013-09-24 09:58:00,81.3,79.4,29.97,North,0,0.0,0.0,94,0.00,,BKN090,0.00,VWS V14.01,2013-09-24 13:58:00,
2013-09-24 10:00:00,81.3,79.4,29.97,North,0,0.0,0.0,94,0.00,,BKN090,0.00,VWS V14.01,2013-09-24 14:00:00,
2013-09-24 10:02:00,81.5,79.6,29.97,North,0,0.0,0.0,94,0.00,,BKN090,0.00,VWS V14.01,2013-09-24 14:02:00,
2013-09-24 10:04:00,81.5,79.6,29.97,North,0,0.0,0.0,94,0.00,,BKN090,0.00,VWS V14.01,2013-09-24 14:04:00,
2013-09-24 10:06:00,81.7,79.8,29.97,North,0,0.0,0.0,94,0.00,,BKN090,0.00,VWS V14.01,2013-09-24 14:06:00,
2013-09-24 10:07:00,81.7,79.8,29.97,North,0,0.0,0.0,94,0.00,,BKN090,0.00,VWS V14.01,2013-09-24 14:07:00,
2013-09-24 10:11:00,82.0,80.2,29.97,North,0,0.0,0.0,94,0.00,,BKN090,0.00,VWS V14.01,2013-09-24 14:11:00,
2013-09-24 10:12:00,82.0,80.2,29.97,North,0,0.0,0.0,94,0.00,,BKN090,0.00,VWS V14.01,2013-09-24 14:12:00,
2013-09-24 10:14:00,82.0,80.2,29.97,North,0,0.0,0.0,94,0.00,,BKN090,0.00,VWS V14.01,2013-09-24 14:14:00,
2013-09-24 10:15:00,82.0,79.8,29.97,North,0,0.0,0.0,93,0.00,,BKN090,0.00,VWS V14.01,2013-09-24 14:15:00,
2013-09-24 10:16:00,82.2,80.0,29.97,North,0,0.0,0.0,93,0.00,,BKN090,0.00,VWS V14.01,2013-09-24 14:16:00,
2013-09-24 10:18:00,82.2,80.0,29.97,North,0,0.0,0.0,93,0.00,,BKN090,0.00,VWS V14.01,2013-09-24 14:18:00,
2013-09-24 10:19:00,82.2,80.0,29.97,North,0,0.0,0.0,93,0.00,,BKN090,0.00,VWS V14.01,2013-09-24 14:19:00,
2013-09-24 10:22:00,82.6,80.3,29.97,North,0,0.0,0.0,93,0.00,,BKN090,0.00,VWS V14.01,2013-09-24 14:22:00,
2013-09-24 10:24:00,82.6,80.0,29.97,North,0,0.0,0.0,92,0.00,,BKN090,0.00,VWS V14.01,2013-09-24 14:24:00,
2013-09-24 10:25:00,82.8,80.2,29.97,North,0,0.0,0.0,92,0.00,,BKN090,0.00,VWS V14.01,2013-09-24 14:25:00,
2013-09-24 10:29:00,82.9,80.4,29.97,North,0,0.0,0.0,92,0.00,,BKN090,0.00,VWS V14.01,2013-09-24 14:29:00,
2013-09-24 10:30:00,82.9,80.4,29.97,North,0,0.0,0.0,92,0.00,,BKN090,0.00,VWS V14.01,2013-09-24 14:30:00,
2013-09-24 10:32:00,83.1,80.6,29.97,North,0,0.0,0.0,92,0.00,,BKN090,0.00,VWS V14.01,2013-09-24 14:32:00,
2013-09-24 10:33:00,83.1,80.6,29.97,North,0,0.0,0.0,92,0.00,,BKN090,0.00,VWS V14.01,2013-09-24 14:33:00,
2013-09-24 10:35:00,83.3,80.4,29.97,North,0,0.0,0.0,91,0.00,,BKN090,0.00,VWS V14.01,2013-09-24 14:35:00,
2013-09-24 10:37:00,83.3,80.4,29.97,North,0,0.0,0.0,91,0.00,,BKN090,0.00,VWS V14.01,2013-09-24 14:37:00,
2013-09-24 10:38:00,83.5,80.6,29.97,North,0,0.0,0.0,91,0.00,,BKN090,0.00,VWS V14.01,2013-09-24 14:38:00,
2013-09-24 10:40:00,83.5,80.2,29.97,North,0,0.0,0.0,90,0.00,,BKN090,0.00,VWS V14.01,2013-09-24 14:40:00,
2013-09-24 10:43:00,83.7,79.7,29.97,North,0,0.0,0.0,88,0.00,,BKN090,0.00,VWS V14.01,2013-09-24 14:43:00,
2013-09-24 10:44:00,83.7,79.7,30.00,North,0,0.0,0.0,88,0.00,,BKN090,0.00,VWS V14.01,2013-09-24 14:44:00,
2013-09-24 10:45:00,83.8,79.6,30.00,North,0,0.0,0.0,87,0.00,,BKN090,0.00,VWS V14.01,2013-09-24 14:45:00,
2013-09-24 10:49:00,83.8,78.5,30.00,North,0,0.0,0.0,84,0.00,,BKN090,0.00,VWS V14.01,2013-09-24 14:49:00,
2013-09-24 10:51:00,84.0,77.9,30.00,North,0,0.0,0.0,82,0.00,,BKN090,0.00,VWS V14.01,2013-09-24 14:51:00,
2013-09-24 10:54:00,84.4,77.2,30.00,North,0,0.0,0.0,79,0.00,,BKN090,0.00,VWS V14.01,2013-09-24 14:54:00,
2013-09-24 10:55:00,84.4,76.8,30.00,North,0,0.0,0.0,78,0.00,,BKN090,0.00,VWS V14.01,2013-09-24 14:55:00,
2013-09-24 10:58:00,84.6,76.6,30.00,North,0,0.0,0.0,77,0.00,,BKN090,0.00,VWS V14.01,2013-09-24 14:58:00,
2013-09-24 10:59:00,84.6,76.2,30.00,North,0,0.0,0.0,76,0.00,,BKN090,0.00,VWS V14.01,2013-09-24 14:59:00,
2013-09-24 11:01:00,84.7,75.5,30.00,North,0,0.0,0.0,74,0.00,,BKN090,0.00,VWS V14.01,2013-09-24 15:01:00,
2013-09-24 11:02:00,84.9,75.3,30.00,North,0,0.0,0.0,73,0.00,,BKN090,0.00,VWS V14.01,2013-09-24 15:02:00,
2013-09-24 11:04:00,85.1,75.1,30.00,North,0,0.0,0.0,72,0.00,,BKN090,0.00,VWS V14.01,2013-09-24 15:04:00,
2013-09-24 11:05:00,85.1,75.1,30.00,North,0,0.0,0.0,72,0.00,,BKN090,0.00,VWS V14.01,2013-09-24 15:05:00,
2013-09-24 11:07:00,85.3,75.2,30.00,North,0,0.0,0.0,72,0.00,,BKN090,0.00,VWS V14.01,2013-09-24 15:07:00,
2013-09-24 11:10:00,85.5,75.0,30.00,North,0,0.0,0.0,71,0.00,,BKN090,0.00,VWS V14.01,2013-09-24 15:10:00,
2013-09-24 11:12:00,85.6,74.7,30.00,North,0,0.0,0.0,70,0.00,,BKN090,0.00,VWS V14.01,2013-09-24 15:12:00,
2013-09-24 11:14:00,85.6,74.3,29.97,North,0,0.0,0.0,69,0.00,,BKN090,0.00,VWS V14.01,2013-09-24 15:14:00,
2013-09-24 11:16:00,85.8,74.0,29.97,North,0,0.0,0.0,68,0.00,,BKN090,0.00,VWS V14.01,2013-09-24 15:16:00,
2013-09-24 11:17:00,85.8,74.0,29.97,North,0,0.0,0.0,68,0.00,,BKN090,0.00,VWS V14.01,2013-09-24 15:17:00,
2013-09-24 11:18:00,85.8,73.6,29.97,North,0,0.0,0.0,67,0.00,,BKN090,0.00,VWS V14.01,2013-09-24 15:18:00,
2013-09-24 11:20:00,86.0,73.8,29.97,North,0,0.0,0.0,67,0.00,,BKN090,0.00,VWS V14.01,2013-09-24 15:20:00,
2013-09-24 11:24:00,86.2,73.5,29.97,North,0,0.0,0.0,66,0.00,,BKN090,0.00,VWS V14.01,2013-09-24 15:24:00,
2013-09-24 11:25:00,86.2,73.5,29.97,North,0,0.0,0.0,66,0.00,,BKN090,0.00,VWS V14.01,2013-09-24 15:25:00,
2013-09-24 11:26:00,86.2,73.5,29.97,North,0,0.0,0.0,66,0.00,,BKN090,0.00,VWS V14.01,2013-09-24 15:26:00,
2013-09-24 11:28:00,86.4,72.3,29.97,North,0,0.0,0.0,63,0.00,,BKN090,0.00,VWS V14.01,2013-09-24 15:28:00,
2013-09-24 11:29:00,86.4,71.3,29.97,North,0,0.0,0.0,61,0.00,,BKN090,0.00,VWS V14.01,2013-09-24 15:29:00,
2013-09-24 11:31:00,86.4,70.8,29.97,North,0,0.0,0.0,60,0.00,,BKN090,0.00,VWS V14.01,2013-09-24 15:31:00,
2013-09-24 11:34:00,86.4,70.8,29.97,North,0,0.0,0.0,60,0.00,,BKN090,0.00,VWS V14.01,2013-09-24 15:34:00,
2013-09-24 11:35:00,86.4,70.8,29.97,North,0,0.0,0.0,60,0.00,,BKN090,0.00,VWS V14.01,2013-09-24 15:35:00,
2013-09-24 11:37:00,86.4,70.8,29.97,North,0,0.0,0.0,60,0.00,,BKN090,0.00,VWS V14.01,2013-09-24 15:37:00,
2013-09-24 11:39:00,86.4,70.8,29.97,North,0,0.0,0.0,60,0.00,,BKN090,0.00,VWS V14.01,2013-09-24 15:39:00,
2013-09-24 11:40:00,86.4,70.8,29.97,North,0,0.0,0.0,60,0.00,,BKN090,0.00,VWS V14.01,2013-09-24 15:40:00,
2013-09-24 11:42:00,86.4,70.8,29.97,North,0,0.0,0.0,60,0.00,,BKN090,0.00,VWS V14.01,2013-09-24 15:42:00,
2013-09-24 11:47:00,86.4,70.8,29.97,North,0,0.0,0.0,60,0.00,,BKN090,0.00,VWS V14.01,2013-09-24 15:47:00,
2013-09-24 11:49:00,86.5,71.5,29.97,North,0,0.0,0.0,61,0.00,,BKN090,0.00,VWS V14.01,2013-09-24 15:49:00,
2013-09-24 11:54:00,86.4,71.3,29.97,North,0,0.0,0.0,61,0.00,,BKN090,0.00,VWS V14.01,2013-09-24 15:54:00,
2013-09-24 11:55:00,86.4,71.3,29.97,North,0,0.0,0.0,61,0.00,,BKN090,0.00,VWS V14.01,2013-09-24 15:55:00,
2013-09-24 11:56:00,86.2,71.2,29.97,North,0,0.0,0.0,61,0.00,,BKN090,0.00,VWS V14.01,2013-09-24 15:56:00,
2013-09-24 11:57:00,86.0,71.5,29.97,North,0,0.0,0.0,62,0.00,,BKN090,0.00,VWS V14.01,2013-09-24 15:57:00,
2013-09-24 12:00:00,85.6,72.1,29.97,North,0,0.0,0.0,64,0.01,,BKN090,0.01,VWS V14.01,2013-09-24 16:00:00,
2013-09-24 12:02:00,85.3,71.7,29.97,North,0,0.0,0.0,64,0.01,,BKN090,0.01,VWS V14.01,2013-09-24 16:02:00,
2013-09-24 12:03:00,85.3,71.7,29.97,North,0,0.0,0.0,64,0.01,,BKN090,0.01,VWS V14.01,2013-09-24 16:03:00,
2013-09-24 12:05:00,84.9,71.8,29.97,North,0,0.0,0.0,65,0.01,,BKN090,0.01,VWS V14.01,2013-09-24 16:05:00,
2013-09-24 12:06:00,84.9,71.8,29.97,North,0,0.0,0.0,65,0.01,,BKN090,0.01,VWS V14.01,2013-09-24 16:06:00,
2013-09-24 12:07:00,84.7,71.7,29.97,North,0,0.0,0.0,65,0.01,,BKN090,0.01,VWS V14.01,2013-09-24 16:07:00,
2013-09-24 12:08:00,84.7,71.7,29.97,North,0,0.0,0.0,65,0.01,,BKN090,0.01,VWS V14.01,2013-09-24 16:08:00,
2013-09-24 12:10:00,84.6,72.0,29.97,North,0,0.0,0.0,66,0.01,,BKN090,0.01,VWS V14.01,2013-09-24 16:10:00,
2013-09-24 12:11:00,84.4,71.8,29.97,North,0,0.0,0.0,66,0.01,,BKN090,0.01,VWS V14.01,2013-09-24 16:11:00,
2013-09-24 12:13:00,84.2,72.1,29.97,North,0,0.0,0.0,67,0.01,,BKN090,0.01,VWS V14.01,2013-09-24 16:13:00,
2013-09-24 12:15:00,84.2,72.5,29.97,North,0,0.0,0.0,68,0.01,,BKN090,0.01,VWS V14.01,2013-09-24 16:15:00,
2013-09-24 12:16:00,84.2,72.5,29.97,North,0,0.0,0.0,68,0.01,,BKN090,0.01,VWS V14.01,2013-09-24 16:16:00,
2013-09-24 12:17:00,84.2,72.5,29.97,North,0,0.0,0.0,68,0.01,,BKN090,0.01,VWS V14.01,2013-09-24 16:17:00,
2013-09-24 12:18:00,84.2,72.9,29.97,North,0,0.0,0.0,69,0.01,,BKN090,0.01,VWS V14.01,2013-09-24 16:18:00,
2013-09-24 12:21:00,84.2,73.4,29.97,North,0,0.0,0.0,70,0.01,,BKN090,0.01,VWS V14.01,2013-09-24 16:21:00,
2013-09-24 12:22:00,84.2,73.4,29.97,North,0,0.0,0.0,70,0.01,,BKN090,0.01,VWS V14.01,2013-09-24 16:22:00,
2013-09-24 12:24:00,84.2,73.8,29.97,North,0,0.0,0.0,71,0.01,,BKN090,0.01,VWS V14.01,2013-09-24 16:24:00,
2013-09-24 12:28:00,84.2,73.8,29.97,North,0,0.0,0.0,71,0.01,,BKN090,0.01,VWS V14.01,2013-09-24 16:28:00,
2013-09-24 12:29:00,84.2,73.8,29.97,North,0,0.0,0.0,71,0.01,,BKN090,0.01,VWS V14.01,2013-09-24 16:29:00,
2013-09-24 12:32:00,84.2,73.8,29.97,North,0,0.0,0.0,71,0.01,,BKN090,0.01,VWS V14.01,2013-09-24 16:32:00,
2013-09-24 12:36:00,84.2,73.4,29.97,North,0,0.0,0.0,70,0.01,,BKN090,0.01,VWS V14.01,2013-09-24 16:36:00,
2013-09-24 12:37:00,84.2,73.4,29.97,North,0,0.0,0.0,70,0.01,,BKN090,0.01,VWS V14.01,2013-09-24 16:37:00,
2013-09-24 12:39:00,84.2,73.4,29.97,North,0,0.0,0.0,70,0.01,,BKN090,0.01,VWS V14.01,2013-09-24 16:39:00,
2013-09-24 12:40:00,84.4,73.5,29.97,North,0,0.0,0.0,70,0.01,,BKN090,0.01,VWS V14.01,2013-09-24 16:40:00,
2013-09-24 12:42:00,84.6,74.1,29.97,North,0,0.0,0.0,71,0.01,,BKN090,0.01,VWS V14.01,2013-09-24 16:42:00,
2013-09-24 12:44:00,84.6,74.1,29.97,North,0,0.0,0.0,71,0.01,,BKN090,0.01,VWS V14.01,2013-09-24 16:44:00,
2013-09-24 12:46:00,84.7,74.3,29.97,North,0,0.0,0.0,71,0.01,,BKN090,0.01,VWS V14.01,2013-09-24 16:46:00,
2013-09-24 12:49:00,84.7,73.9,29.97,North,0,0.0,0.0,70,0.01,,BKN090,0.01,VWS V14.01,2013-09-24 16:49:00,
2013-09-24 12:50:00,84.7,73.4,29.97,North,0,0.0,0.0,69,0.01,,BKN090,0.01,VWS V14.01,2013-09-24 16:50:00,
2013-09-24 12:51:00,84.9,73.2,29.97,North,0,0.0,0.0,68,0.01,,BKN090,0.01,VWS V14.01,2013-09-24 16:51:00,
2013-09-24 12:52:00,84.9,73.2,29.97,North,0,0.0,0.0,68,0.01,,BKN090,0.01,VWS V14.01,2013-09-24 16:52:00,
2013-09-24 12:55:00,84.9,72.8,29.97,North,0,0.0,0.0,67,0.01,,BKN090,0.01,VWS V14.01,2013-09-24 16:55:00,
2013-09-24 12:57:00,85.1,72.9,29.97,North,0,0.0,0.0,67,0.01,,BKN090,0.01,VWS V14.01,2013-09-24 16:57:00,
2013-09-24 12:59:00,85.1,72.0,29.97,North,0,0.0,0.0,65,0.00,,BKN090,0.01,VWS V14.01,2013-09-24 16:59:00,
2013-09-24 13:00:00,85.3,72.2,29.97,North,0,0.0,0.0,65,0.00,,BKN090,0.01,VWS V14.01,2013-09-24 17:00:00,
2013-09-24 13:02:00,85.3,72.2,29.97,North,0,0.0,0.0,65,0.00,,BKN090,0.01,VWS V14.01,2013-09-24 17:02:00,
2013-09-24 13:03:00,85.3,72.2,29.97,North,0,0.0,0.0,65,0.00,,BKN090,0.01,VWS V14.01,2013-09-24 17:03:00,
2013-09-24 13:05:00,85.5,72.4,29.97,North,0,0.0,0.0,65,0.00,,BKN090,0.01,VWS V14.01,2013-09-24 17:05:00,
2013-09-24 13:08:00,85.5,71.9,29.97,North,0,0.0,0.0,64,0.00,,BKN090,0.01,VWS V14.01,2013-09-24 17:08:00,
2013-09-24 13:09:00,85.5,71.9,29.97,North,0,0.0,0.0,64,0.00,,BKN090,0.01,VWS V14.01,2013-09-24 17:09:00,
2013-09-24 13:11:00,85.6,71.6,29.97,North,0,0.0,0.0,63,0.00,,BKN090,0.01,VWS V14.01,2013-09-24 17:11:00,
2013-09-24 13:13:00,85.6,71.6,29.97,North,0,0.0,0.0,63,0.00,,BKN090,0.01,VWS V14.01,2013-09-24 17:13:00,
2013-09-24 13:15:00,85.6,71.6,29.97,North,0,0.0,0.0,63,0.00,,BKN090,0.01,VWS V14.01,2013-09-24 17:15:00,
2013-09-24 13:17:00,85.8,70.8,29.97,North,0,0.0,0.0,61,0.00,,BKN090,0.01,VWS V14.01,2013-09-24 17:17:00,
2013-09-24 13:21:00,85.8,70.8,29.97,North,0,0.0,0.0,61,0.00,,BKN090,0.01,VWS V14.01,2013-09-24 17:21:00,
2013-09-24 13:22:00,85.8,70.3,29.97,North,0,0.0,0.0,60,0.00,,BKN090,0.01,VWS V14.01,2013-09-24 17:22:00,
2013-09-24 13:26:00,86.0,70.0,29.97,North,0,0.0,0.0,59,0.00,,BKN090,0.01,VWS V14.01,2013-09-24 17:26:00,
2013-09-24 13:28:00,86.0,70.5,29.94,North,0,0.0,0.0,60,0.00,,BKN090,0.01,VWS V14.01,2013-09-24 17:28:00,
2013-09-24 13:29:00,86.0,70.0,29.94,North,0,0.0,0.0,59,0.00,,BKN090,0.01,VWS V14.01,2013-09-24 17:29:00,
2013-09-24 13:32:00,86.0,70.0,29.94,North,0,0.0,0.0,59,0.00,,BKN090,0.01,VWS V14.01,2013-09-24 17:32:00,
2013-09-24 13:33:00,86.0,70.0,29.94,North,0,0.0,0.0,59,0.00,,BKN090,0.01,VWS V14.01,2013-09-24 17:33:00,
2013-09-24 13:36:00,86.2,70.7,29.94,North,0,0.0,0.0,60,0.00,,BKN090,0.01,VWS V14.01,2013-09-24 17:36:00,
2013-09-24 13:38:00,86.0,69.5,29.94,North,0,0.0,0.0,58,0.00,,BKN090,0.01,VWS V14.01,2013-09-24 17:38:00,
2013-09-24 13:39:00,86.2,69.7,29.94,North,0,0.0,0.0,58,0.00,,BKN090,0.01,VWS V14.01,2013-09-24 17:39:00,
2013-09-24 13:40:00,86.0,69.5,29.94,North,0,0.0,0.0,58,0.00,,BKN090,0.01,VWS V14.01,2013-09-24 17:40:00,
2013-09-24 13:43:00,86.0,69.5,29.94,North,0,0.0,0.0,58,0.00,,BKN090,0.01,VWS V14.01,2013-09-24 17:43:00,
2013-09-24 13:45:00,86.0,69.5,29.94,North,0,0.0,0.0,58,0.00,,BKN090,0.01,VWS V14.01,2013-09-24 17:45:00,
2013-09-24 13:46:00,86.0,69.5,29.94,North,0,0.0,0.0,58,0.00,,BKN090,0.01,VWS V14.01,2013-09-24 17:46:00,
2013-09-24 13:48:00,86.2,70.2,29.94,North,0,0.0,0.0,59,0.00,,BKN090,0.01,VWS V14.01,2013-09-24 17:48:00,
2013-09-24 13:51:00,86.2,70.2,29.94,North,0,0.0,0.0,59,0.00,,BKN090,0.01,VWS V14.01,2013-09-24 17:51:00,
2013-09-24 13:53:00,86.2,70.7,29.94,North,0,0.0,0.0,60,0.00,,BKN090,0.01,VWS V14.01,2013-09-24 17:53:00,
2013-09-24 13:55:00,86.2,70.7,29.94,North,0,0.0,0.0,60,0.00,,BKN090,0.01,VWS V14.01,2013-09-24 17:55:00,
2013-09-24 13:56:00,86.2,69.7,29.94,North,0,0.0,0.0,58,0.00,,BKN090,0.01,VWS V14.01,2013-09-24 17:56:00,
2013-09-24 13:59:00,86.2,69.2,29.94,North,0,0.0,0.0,57,0.00,,BKN090,0.01,VWS V14.01,2013-09-24 17:59:00,
2013-09-24 14:02:00,86.4,69.3,29.94,North,0,0.0,0.0,57,0.00,,BKN090,0.01,VWS V14.01,2013-09-24 18:02:00,
2013-09-24 14:04:00,86.5,69.0,29.94,North,0,0.0,0.0,56,0.00,,BKN090,0.01,VWS V14.01,2013-09-24 18:04:00,
2013-09-24 14:05:00,86.5,69.0,29.94,North,0,0.0,0.0,56,0.00,,BKN090,0.01,VWS V14.01,2013-09-24 18:05:00,
2013-09-24 14:07:00,86.5,68.5,29.94,North,0,0.0,0.0,55,0.00,,BKN090,0.01,VWS V14.01,2013-09-24 18:07:00,
2013-09-24 14:09:00,86.7,69.2,29.94,North,0,0.0,0.0,56,0.00,,BKN090,0.01,VWS V14.01,2013-09-24 18:09:00,
2013-09-24 14:10:00,86.7,68.6,29.94,North,0,0.0,0.0,55,0.00,,BKN090,0.01,VWS V14.01,2013-09-24 18:10:00,
2013-09-24 14:16:00,86.7,69.2,29.94,North,0,0.0,0.0,56,0.00,,BKN090,0.01,VWS V14.01,2013-09-24 18:16:00,
2013-09-24 14:17:00,86.7,69.2,29.94,North,0,0.0,0.0,56,0.00,,BKN090,0.01,VWS V14.01,2013-09-24 18:17:00,
2013-09-24 14:19:00,86.7,69.2,29.94,North,0,0.0,0.0,56,0.00,,BKN090,0.01,VWS V14.01,2013-09-24 18:19:00,
2013-09-24 14:21:00,86.7,68.6,29.94,North,0,0.0,0.0,55,0.00,,BKN090,0.01,VWS V14.01,2013-09-24 18:21:00,
2013-09-24 14:22:00,86.7,68.1,29.94,North,0,0.0,0.0,54,0.00,,BKN090,0.01,VWS V14.01,2013-09-24 18:22:00,
2013-09-24 14:23:00,86.7,68.1,29.94,North,0,0.0,0.0,54,0.00,,BKN090,0.01,VWS V14.01,2013-09-24 18:23:00,
2013-09-24 14:28:00,86.5,67.9,29.94,North,0,0.0,0.0,54,0.00,,BKN090,0.01,VWS V14.01,2013-09-24 18:28:00,
2013-09-24 14:29:00,86.5,67.9,29.94,North,0,0.0,0.0,54,0.00,,BKN090,0.01,VWS V14.01,2013-09-24 18:29:00,
2013-09-24 14:31:00,86.4,67.2,29.94,North,0,0.0,0.0,53,0.00,,BKN090,0.01,VWS V14.01,2013-09-24 18:31:00,
2013-09-24 14:32:00,86.4,67.2,29.94,North,0,0.0,0.0,53,0.00,,BKN090,0.01,VWS V14.01,2013-09-24 18:32:00,
2013-09-24 14:35:00,86.2,67.1,29.94,North,0,0.0,0.0,53,0.00,,BKN090,0.01,VWS V14.01,2013-09-24 18:35:00,
2013-09-24 14:36:00,86.2,67.6,29.94,North,0,0.0,0.0,54,0.00,,BKN090,0.01,VWS V14.01,2013-09-24 18:36:00,
2013-09-24 14:38:00,86.2,67.6,29.94,North,0,0.0,0.0,54,0.00,,BKN090,0.01,VWS V14.01,2013-09-24 18:38:00,
2013-09-24 14:41:00,86.0,67.4,29.94,North,0,0.0,0.0,54,0.00,,BKN090,0.01,VWS V14.01,2013-09-24 18:41:00,
2013-09-24 14:42:00,86.0,67.4,29.94,North,0,0.0,0.0,54,0.00,,BKN090,0.01,VWS V14.01,2013-09-24 18:42:00,
2013-09-24 14:44:00,85.8,68.3,29.94,North,0,0.0,0.0,56,0.00,,BKN090,0.01,VWS V14.01,2013-09-24 18:44:00,
2013-09-24 14:45:00,85.8,68.3,29.94,North,0,0.0,0.0,56,0.00,,BKN090,0.01,VWS V14.01,2013-09-24 18:45:00,
2013-09-24 14:48:00,85.8,68.3,29.94,North,0,0.0,0.0,56,0.00,,BKN090,0.01,VWS V14.01,2013-09-24 18:48:00,
2013-09-24 14:50:00,85.8,68.3,29.94,North,0,0.0,0.0,56,0.00,,BKN090,0.01,VWS V14.01,2013-09-24 18:50:00,
2013-09-24 14:53:00,85.6,68.2,29.94,North,0,0.0,0.0,56,0.00,,BKN090,0.01,VWS V14.01,2013-09-24 18:53:00,
2013-09-24 14:54:00,85.6,68.2,29.94,North,0,0.0,0.0,56,0.00,,BKN090,0.01,VWS V14.01,2013-09-24 18:54:00,
2013-09-24 14:55:00,85.6,68.7,29.94,North,0,0.0,0.0,57,0.00,,BKN090,0.01,VWS V14.01,2013-09-24 18:55:00,
2013-09-24 14:57:00,85.6,68.7,29.94,North,0,0.0,0.0,57,0.00,,BKN090,0.01,VWS V14.01,2013-09-24 18:57:00,
2013-09-24 14:58:00,85.6,68.7,29.94,North,0,0.0,0.0,57,0.00,,BKN090,0.01,VWS V14.01,2013-09-24 18:58:00,
2013-09-24 14:59:00,85.6,69.2,29.94,North,0,0.0,0.0,58,0.00,,BKN090,0.01,VWS V14.01,2013-09-24 18:59:00,
2013-09-24 15:03:00,85.8,69.3,29.94,North,0,0.0,0.0,58,0.00,,BKN090,0.01,VWS V14.01,2013-09-24 19:03:00,
2013-09-24 15:04:00,85.8,69.3,29.94,North,0,0.0,0.0,58,0.00,,BKN090,0.01,VWS V14.01,2013-09-24 19:04:00,
2013-09-24 15:05:00,85.8,69.3,29.94,North,0,0.0,0.0,58,0.00,,BKN090,0.01,VWS V14.01,2013-09-24 19:05:00,
2013-09-24 15:07:00,85.6,69.2,29.94,North,0,0.0,0.0,58,0.00,,BKN090,0.01,VWS V14.01,2013-09-24 19:07:00,
2013-09-24 15:08:00,85.6,68.7,29.94,North,0,0.0,0.0,57,0.00,,BKN090,0.01,VWS V14.01,2013-09-24 19:08:00,
2013-09-24 15:13:00,85.6,68.7,29.94,North,0,0.0,0.0,57,0.00,,BKN090,0.01,VWS V14.01,2013-09-24 19:13:00,
2013-09-24 15:14:00,85.5,68.5,29.94,North,0,0.0,0.0,57,0.00,,BKN090,0.01,VWS V14.01,2013-09-24 19:14:00,
2013-09-24 15:16:00,85.5,68.5,29.94,North,0,0.0,0.0,57,0.00,,BKN090,0.01,VWS V14.01,2013-09-24 19:16:00,
2013-09-24 15:18:00,85.5,69.0,29.94,North,0,0.0,0.0,58,0.00,,BKN090,0.01,VWS V14.01,2013-09-24 19:18:00,
2013-09-24 15:20:00,85.5,69.0,29.94,North,0,0.0,0.0,58,0.00,,BKN090,0.01,VWS V14.01,2013-09-24 19:20:00,
2013-09-24 15:21:00,85.5,69.0,29.94,North,0,0.0,0.0,58,0.00,,BKN090,0.01,VWS V14.01,2013-09-24 19:21:00,
2013-09-24 15:23:00,85.5,69.5,29.94,North,0,0.0,0.0,59,0.00,,BKN090,0.01,VWS V14.01,2013-09-24 19:23:00,
2013-09-24 15:24:00,85.5,69.5,29.94,North,0,0.0,0.0,59,0.00,,BKN090,0.01,VWS V14.01,2013-09-24 19:24:00,
2013-09-24 15:26:00,85.5,69.5,29.94,North,0,0.0,0.0,59,0.00,,BKN090,0.01,VWS V14.01,2013-09-24 19:26:00,
2013-09-24 15:29:00,85.3,69.3,29.94,North,0,0.0,0.0,59,0.00,,BKN090,0.01,VWS V14.01,2013-09-24 19:29:00,
2013-09-24 15:30:00,85.3,69.3,29.94,North,0,0.0,0.0,59,0.00,,BKN090,0.01,VWS V14.01,2013-09-24 19:30:00,
2013-09-24 15:31:00,85.3,69.3,29.94,North,0,0.0,0.0,59,0.00,,BKN090,0.01,VWS V14.01,2013-09-24 19:31:00,
2013-09-24 15:33:00,85.3,69.8,29.94,North,0,0.0,0.0,60,0.00,,BKN090,0.01,VWS V14.01,2013-09-24 19:33:00,
2013-09-24 15:35:00,85.1,69.7,29.94,North,0,0.0,0.0,60,0.00,,BKN090,0.01,VWS V14.01,2013-09-24 19:35:00,
2013-09-24 15:36:00,84.9,67.5,29.94,North,0,0.0,0.0,56,0.00,,BKN090,0.01,VWS V14.01,2013-09-24 19:36:00,
2013-09-24 15:39:00,83.8,61.5,29.94,North,0,0.0,0.0,47,0.00,,BKN090,0.01,VWS V14.01,2013-09-24 19:39:00,
2013-09-24 15:41:00,82.6,61.5,29.94,North,0,0.0,0.0,49,0.00,,BKN090,0.01,VWS V14.01,2013-09-24 19:41:00,
2013-09-24 15:42:00,82.2,61.8,29.94,North,0,0.0,0.0,50,0.00,,BKN090,0.01,VWS V14.01,2013-09-24 19:42:00,
2013-09-24 15:43:00,81.7,62.4,29.94,North,0,0.0,0.0,52,0.00,,BKN090,0.01,VWS V14.01,2013-09-24 19:43:00,
2013-09-24 15:46:00,80.4,64.3,29.97,North,0,0.0,0.0,58,0.00,,BKN100,0.01,VWS V14.01,2013-09-24 19:46:00,
2013-09-24 15:47:00,80.1,64.5,29.97,North,0,0.0,0.0,59,0.00,,BKN100,0.01,VWS V14.01,2013-09-24 19:47:00,
2013-09-24 15:48:00,79.5,64.4,29.97,North,0,0.0,0.0,60,0.00,,BKN100,0.01,VWS V14.01,2013-09-24 19:48:00,
2013-09-24 15:49:00,78.8,64.2,29.97,North,0,0.0,0.0,61,0.06,,BKN100,0.07,VWS V14.01,2013-09-24 19:49:00,
2013-09-24 15:52:00,78.1,64.9,29.97,North,0,0.0,0.0,64,0.21,,BKN100,0.22,VWS V14.01,2013-09-24 19:52:00,
2013-09-24 15:53:00,77.7,65.0,29.97,North,0,0.0,0.0,65,0.23,,BKN100,0.24,VWS V14.01,2013-09-24 19:53:00,
2013-09-24 15:54:00,77.4,65.1,29.97,North,0,0.0,0.0,66,0.24,,BKN100,0.26,VWS V14.01,2013-09-24 19:54:00,
2013-09-24 15:55:00,77.2,64.9,29.97,North,0,0.0,0.0,66,0.24,,BKN100,0.26,VWS V14.01,2013-09-24 19:55:00,
2013-09-24 15:59:00,76.1,64.8,29.97,North,0,0.0,0.0,68,0.26,,BKN100,0.27,VWS V14.01,2013-09-24 19:59:00,
2013-09-24 16:00:00,76.1,64.8,29.97,North,0,0.0,0.0,68,0.26,,BKN100,0.27,VWS V14.01,2013-09-24 20:00:00,
2013-09-24 16:01:00,75.9,65.0,29.97,North,0,0.0,0.0,69,0.26,,BKN100,0.27,VWS V14.01,2013-09-24 20:01:00,
2013-09-24 16:02:00,75.6,64.7,29.97,North,0,0.0,0.0,69,0.26,,BKN100,0.27,VWS V14.01,2013-09-24 20:02:00,
2013-09-24 16:05:00,75.2,64.8,29.97,North,0,0.0,0.0,70,0.30,,BKN100,0.31,VWS V14.01,2013-09-24 20:05:00,
2013-09-24 16:07:00,74.8,65.2,29.97,North,0,0.0,0.0,72,0.31,,BKN100,0.33,VWS V14.01,2013-09-24 20:07:00,
2013-09-24 16:09:00,74.7,65.4,29.97,North,0,0.0,0.0,73,0.33,,BKN100,0.34,VWS V14.01,2013-09-24 20:09:00,
2013-09-24 16:13:00,74.5,65.7,29.97,North,0,0.0,0.0,74,0.34,,BKN100,0.35,VWS V14.01,2013-09-24 20:13:00,
2013-09-24 16:14:00,74.3,65.5,29.97,North,0,0.0,0.0,74,0.34,,BKN100,0.35,VWS V14.01,2013-09-24 20:14:00,
2013-09-24 16:15:00,74.3,65.9,29.97,North,0,0.0,0.0,75,0.34,,BKN100,0.35,VWS V14.01,2013-09-24 20:15:00,
2013-09-24 16:17:00,74.1,65.7,29.97,North,0,0.0,0.0,75,0.34,,BKN100,0.35,VWS V14.01,2013-09-24 20:17:00,
2013-09-24 16:20:00,74.1,66.1,29.97,North,0,0.0,0.0,76,0.34,,BKN100,0.35,VWS V14.01,2013-09-24 20:20:00,
2013-09-24 16:22:00,74.1,66.5,29.97,North,0,0.0,0.0,77,0.34,,BKN100,0.35,VWS V14.01,2013-09-24 20:22:00,
2013-09-24 16:23:00,74.1,66.5,29.97,North,0,0.0,0.0,77,0.34,,BKN100,0.35,VWS V14.01,2013-09-24 20:23:00,
2013-09-24 16:24:00,74.1,66.5,29.97,North,0,0.0,0.0,77,0.34,,BKN100,0.35,VWS V14.01,2013-09-24 20:24:00,
2013-09-24 16:26:00,74.3,67.0,29.97,North,0,0.0,0.0,78,0.34,,BKN100,0.35,VWS V14.01,2013-09-24 20:26:00,
2013-09-24 16:28:00,74.3,67.0,29.97,North,0,0.0,0.0,78,0.34,,BKN100,0.35,VWS V14.01,2013-09-24 20:28:00,
2013-09-24 16:29:00,74.3,67.0,29.97,North,0,0.0,0.0,78,0.34,,BKN100,0.35,VWS V14.01,2013-09-24 20:29:00,
2013-09-24 16:32:00,74.5,67.6,29.97,North,0,0.0,0.0,79,0.34,,BKN100,0.35,VWS V14.01,2013-09-24 20:32:00,
2013-09-24 16:33:00,74.3,67.4,29.97,North,0,0.0,0.0,79,0.34,,BKN100,0.35,VWS V14.01,2013-09-24 20:33:00,
2013-09-24 16:35:00,74.3,67.4,29.97,North,0,0.0,0.0,79,0.34,,BKN100,0.35,VWS V14.01,2013-09-24 20:35:00,
2013-09-24 16:37:00,74.3,67.4,29.97,North,0,0.0,0.0,79,0.34,,BKN100,0.35,VWS V14.01,2013-09-24 20:37:00,
2013-09-24 16:39:00,74.3,67.4,29.97,North,0,0.0,0.0,79,0.34,,BKN100,0.35,VWS V14.01,2013-09-24 20:39:00,
2013-09-24 16:41:00,74.3,67.4,29.97,North,0,0.0,0.0,79,0.34,,BKN100,0.35,VWS V14.01,2013-09-24 20:41:00,
2013-09-24 16:44:00,74.5,67.6,29.97,North,0,0.0,0.0,79,0.34,,BKN100,0.35,VWS V14.01,2013-09-24 20:44:00,
2013-09-24 16:45:00,74.5,67.6,29.97,North,0,0.0,0.0,79,0.34,,BKN100,0.35,VWS V14.01,2013-09-24 20:45:00,
2013-09-24 16:46:00,74.5,67.6,29.97,North,0,0.0,0.0,79,0.34,,BKN100,0.35,VWS V14.01,2013-09-24 20:46:00,
2013-09-24 16:47:00,74.7,67.7,29.97,North,0,0.0,0.0,79,0.34,,BKN100,0.35,VWS V14.01,2013-09-24 20:47:00,
2013-09-24 16:50:00,74.7,67.7,29.97,North,0,0.0,0.0,79,0.28,,BKN100,0.35,VWS V14.01,2013-09-24 20:50:00,
2013-09-24 16:51:00,74.7,67.7,29.97,North,0,0.0,0.0,79,0.22,,BKN100,0.35,VWS V14.01,2013-09-24 20:51:00,
2013-09-24 16:52:00,74.7,67.7,29.97,North,0,0.0,0.0,79,0.17,,BKN100,0.35,VWS V14.01,2013-09-24 20:52:00,
2013-09-24 16:54:00,74.7,67.7,29.97,North,0,0.0,0.0,79,0.10,,BKN100,0.35,VWS V14.01,2013-09-24 20:54:00,
2013-09-24 16:55:00,74.7,67.7,29.97,North,0,0.0,0.0,79,0.09,,BKN100,0.35,VWS V14.01,2013-09-24 20:55:00,
2013-09-24 16:57:00,74.8,67.9,29.97,North,0,0.0,0.0,79,0.08,,BKN100,0.35,VWS V14.01,2013-09-24 20:57:00,
2013-09-24 16:58:00,74.8,67.9,29.97,North,0,0.0,0.0,79,0.08,,BKN100,0.35,VWS V14.01,2013-09-24 20:58:00,
2013-09-24 16:59:00,74.8,67.9,29.94,North,0,0.0,0.0,79,0.08,,BKN100,0.35,VWS V14.01,2013-09-24 20:59:00,
2013-09-24 17:01:00,74.8,67.9,29.94,North,0,0.0,0.0,79,0.08,,BKN100,0.35,VWS V14.01,2013-09-24 21:01:00,
2013-09-24 17:03:00,74.8,67.9,29.94,North,0,0.0,0.0,79,0.08,,BKN100,0.35,VWS V14.01,2013-09-24 21:03:00,
2013-09-24 17:05:00,74.8,67.9,29.94,North,0,0.0,0.0,79,0.05,,BKN100,0.35,VWS V14.01,2013-09-24 21:05:00,
2013-09-24 17:08:00,74.8,67.5,29.94,North,0,0.0,0.0,78,0.02,,BKN100,0.35,VWS V14.01,2013-09-24 21:08:00,
2013-09-24 17:09:00,74.8,67.5,29.94,North,0,0.0,0.0,78,0.01,,BKN100,0.35,VWS V14.01,2013-09-24 21:09:00,
2013-09-24 17:13:00,74.8,67.5,29.94,North,0,0.0,0.0,78,0.00,,BKN100,0.35,VWS V14.01,2013-09-24 21:13:00,
2013-09-24 17:14:00,74.8,67.5,29.94,North,0,0.0,0.0,78,0.00,,BKN100,0.35,VWS V14.01,2013-09-24 21:14:00,
2013-09-24 17:15:00,74.8,67.5,29.94,North,0,0.0,0.0,78,0.00,,BKN100,0.35,VWS V14.01,2013-09-24 21:15:00,
2013-09-24 17:18:00,75.0,67.7,29.94,North,0,0.0,0.0,78,0.00,,BKN100,0.35,VWS V14.01,2013-09-24 21:18:00,
2013-09-24 17:20:00,75.0,67.3,29.94,North,0,0.0,0.0,77,0.00,,BKN100,0.35,VWS V14.01,2013-09-24 21:20:00,
2013-09-24 17:21:00,75.0,67.3,29.94,North,0,0.0,0.0,77,0.00,,BKN100,0.35,VWS V14.01,2013-09-24 21:21:00,
2013-09-24 17:24:00,75.0,67.3,29.94,North,0,0.0,0.0,77,0.00,,BKN100,0.35,VWS V14.01,2013-09-24 21:24:00,
2013-09-24 17:26:00,75.0,67.3,29.94,North,0,0.0,0.0,77,0.00,,BKN100,0.35,VWS V14.01,2013-09-24 21:26:00,
2013-09-24 17:27:00,75.0,67.3,29.94,North,0,0.0,0.0,77,0.00,,BKN100,0.35,VWS V14.01,2013-09-24 21:27:00,
2013-09-24 17:30:00,75.2,67.5,29.94,North,0,0.0,0.0,77,0.00,,BKN100,0.35,VWS V14.01,2013-09-24 21:30:00,
2013-09-24 17:31:00,75.2,67.5,29.94,North,0,0.0,0.0,77,0.00,,BKN100,0.35,VWS V14.01,2013-09-24 21:31:00,
2013-09-24 17:32:00,75.2,67.5,29.94,North,0,0.0,0.0,77,0.00,,BKN100,0.35,VWS V14.01,2013-09-24 21:32:00,
2013-09-24 17:35:00,75.4,67.7,29.94,North,0,0.0,0.0,77,0.00,,BKN100,0.35,VWS V14.01,2013-09-24 21:35:00,
2013-09-24 17:36:00,75.4,67.7,29.94,North,0,0.0,0.0,77,0.00,,BKN100,0.35,VWS V14.01,2013-09-24 21:36:00,
2013-09-24 17:37:00,75.4,67.7,29.94,North,0,0.0,0.0,77,0.00,,BKN100,0.35,VWS V14.01,2013-09-24 21:37:00,
2013-09-24 17:38:00,75.4,67.7,29.94,North,0,0.0,0.0,77,0.00,,BKN100,0.35,VWS V14.01,2013-09-24 21:38:00,
2013-09-24 17:41:00,75.6,67.8,29.94,North,0,0.0,0.0,77,0.00,,BKN100,0.35,VWS V14.01,2013-09-24 21:41:00,
2013-09-24 17:42:00,75.6,67.8,29.94,North,0,0.0,0.0,77,0.00,,BKN100,0.35,VWS V14.01,2013-09-24 21:42:00,
2013-09-24 17:43:00,75.6,67.8,29.94,North,0,0.0,0.0,77,0.00,,BKN100,0.35,VWS V14.01,2013-09-24 21:43:00,
2013-09-24 17:47:00,75.7,68.0,29.94,North,0,0.0,0.0,77,0.00,,BKN100,0.35,VWS V14.01,2013-09-24 21:47:00,
2013-09-24 17:48:00,75.7,68.0,29.94,North,0,0.0,0.0,77,0.00,,BKN100,0.35,VWS V14.01,2013-09-24 21:48:00,
2013-09-24 17:50:00,75.9,68.2,29.94,North,0,0.0,0.0,77,0.00,,BKN100,0.35,VWS V14.01,2013-09-24 21:50:00,
2013-09-24 17:51:00,75.9,68.2,29.94,North,0,0.0,0.0,77,0.00,,BKN100,0.35,VWS V14.01,2013-09-24 21:51:00,
2013-09-24 17:52:00,75.9,68.2,29.94,North,0,0.0,0.0,77,0.00,,BKN100,0.35,VWS V14.01,2013-09-24 21:52:00,
2013-09-24 17:54:00,75.9,68.2,29.94,North,0,0.0,0.0,77,0.00,,BKN100,0.35,VWS V14.01,2013-09-24 21:54:00,
2013-09-24 17:56:00,75.9,68.2,29.94,North,0,0.0,0.0,77,0.00,,BKN100,0.35,VWS V14.01,2013-09-24 21:56:00,
2013-09-24 17:59:00,76.1,68.4,29.94,North,0,0.0,0.0,77,0.00,,BKN100,0.35,VWS V14.01,2013-09-24 21:59:00,
2013-09-24 18:00:00,76.1,68.4,29.94,North,0,0.0,0.0,77,0.00,,BKN100,0.35,VWS V14.01,2013-09-24 22:00:00,
2013-09-24 18:02:00,76.1,68.4,29.94,North,0,0.0,0.0,77,0.00,,BKN100,0.35,VWS V14.01,2013-09-24 22:02:00,
2013-09-24 18:03:00,76.1,68.4,29.94,North,0,0.0,0.0,77,0.00,,BKN100,0.35,VWS V14.01,2013-09-24 22:03:00,
2013-09-24 18:06:00,76.1,68.4,29.94,North,0,0.0,0.0,77,0.00,,BKN100,0.35,VWS V14.01,2013-09-24 22:06:00,
2013-09-24 18:07:00,76.1,68.4,29.94,North,0,0.0,0.0,77,0.00,,BKN100,0.35,VWS V14.01,2013-09-24 22:07:00,
2013-09-24 18:09:00,76.1,68.0,29.94,North,0,0.0,0.0,76,0.00,,BKN100,0.35,VWS V14.01,2013-09-24 22:09:00,
2013-09-24 18:11:00,76.1,68.0,29.94,North,0,0.0,0.0,76,0.00,,BKN100,0.35,VWS V14.01,2013-09-24 22:11:00,
2013-09-24 18:12:00,76.1,68.4,29.94,North,0,0.0,0.0,77,0.00,,BKN100,0.35,VWS V14.01,2013-09-24 22:12:00,
2013-09-24 18:13:00,76.1,68.0,29.94,North,0,0.0,0.0,76,0.00,,BKN100,0.35,VWS V14.01,2013-09-24 22:13:00,
2013-09-24 18:14:00,76.1,68.0,29.94,North,0,0.0,0.0,76,0.00,,BKN100,0.35,VWS V14.01,2013-09-24 22:14:00,
2013-09-24 18:16:00,76.1,68.0,29.94,North,0,0.0,0.0,76,0.00,,BKN100,0.35,VWS V14.01,2013-09-24 22:16:00,
2013-09-24 18:18:00,76.1,68.0,29.94,North,0,0.0,0.0,76,0.00,,BKN100,0.35,VWS V14.01,2013-09-24 22:18:00,
2013-09-24 18:19:00,76.1,68.0,29.94,North,0,0.0,0.0,76,0.00,,BKN100,0.35,VWS V14.01,2013-09-24 22:19:00,
2013-09-24 18:20:00,76.1,68.0,29.94,North,0,0.0,0.0,76,0.00,,BKN100,0.35,VWS V14.01,2013-09-24 22:20:00,
2013-09-24 18:22:00,76.1,68.0,29.94,North,0,0.0,0.0,76,0.00,,BKN100,0.35,VWS V14.01,2013-09-24 22:22:00,
2013-09-24 18:23:00,76.1,68.0,29.94,North,0,0.0,0.0,76,0.00,,BKN100,0.35,VWS V14.01,2013-09-24 22:23:00,
2013-09-24 18:24:00,76.1,68.0,29.94,North,0,0.0,0.0,76,0.00,,BKN100,0.35,VWS V14.01,2013-09-24 22:24:00,
2013-09-24 18:27:00,76.1,68.0,29.94,North,0,0.0,0.0,76,0.00,,BKN100,0.35,VWS V14.01,2013-09-24 22:27:00,
2013-09-24 18:28:00,76.1,68.0,29.94,North,0,0.0,0.0,76,0.00,,BKN100,0.35,VWS V14.01,2013-09-24 22:28:00,
2013-09-24 18:29:00,76.1,68.4,29.94,North,0,0.0,0.0,77,0.00,,BKN100,0.35,VWS V14.01,2013-09-24 22:29:00,
2013-09-24 18:31:00,76.1,68.4,29.94,North,0,0.0,0.0,77,0.00,,BKN100,0.35,VWS V14.01,2013-09-24 22:31:00,
2013-09-24 18:32:00,76.1,68.4,29.94,North,0,0.0,0.0,77,0.00,,BKN100,0.35,VWS V14.01,2013-09-24 22:32:00,
2013-09-24 18:34:00,76.1,68.4,29.94,North,0,0.0,0.0,77,0.00,,BKN100,0.35,VWS V14.01,2013-09-24 22:34:00,
2013-09-24 18:35:00,76.1,68.4,29.94,North,0,0.0,0.0,77,0.00,,BKN100,0.35,VWS V14.01,2013-09-24 22:35:00,
2013-09-24 18:36:00,76.1,68.4,29.94,North,0,0.0,0.0,77,0.00,,BKN100,0.35,VWS V14.01,2013-09-24 22:36:00,
2013-09-24 18:38:00,75.9,68.2,29.94,North,0,0.0,0.0,77,0.00,,BKN100,0.35,VWS V14.01,2013-09-24 22:38:00,
2013-09-24 18:39:00,75.9,68.2,29.94,North,0,0.0,0.0,77,0.00,,BKN100,0.35,VWS V14.01,2013-09-24 22:39:00,
2013-09-24 18:40:00,75.9,68.2,29.94,North,0,0.0,0.0,77,0.00,,BKN100,0.35,VWS V14.01,2013-09-24 22:40:00,
2013-09-24 18:43:00,75.9,68.6,29.94,North,0,0.0,0.0,78,0.00,,BKN100,0.35,VWS V14.01,2013-09-24 22:43:00,
2013-09-24 18:46:00,75.9,68.6,29.94,North,0,0.0,0.0,78,0.00,,BKN100,0.35,VWS V14.01,2013-09-24 22:46:00,
2013-09-24 18:47:00,75.9,68.6,29.94,North,0,0.0,0.0,78,0.00,,BKN100,0.35,VWS V14.01,2013-09-24 22:47:00,
2013-09-24 18:51:00,75.7,68.4,29.94,North,0,0.0,0.0,78,0.00,,BKN100,0.35,VWS V14.01,2013-09-24 22:51:00,
2013-09-24 18:52:00,75.7,68.4,29.94,North,0,0.0,0.0,78,0.00,,BKN100,0.35,VWS V14.01,2013-09-24 22:52:00,
2013-09-24 18:56:00,75.6,68.2,29.94,North,0,0.0,0.0,78,0.00,,BKN100,0.35,VWS V14.01,2013-09-24 22:56:00,
2013-09-24 18:59:00,75.6,68.2,29.94,North,0,0.0,0.0,78,0.00,,BKN100,0.35,VWS V14.01,2013-09-24 22:59:00,
2013-09-24 19:00:00,75.6,68.2,29.94,North,0,0.0,0.0,78,0.00,,BKN100,0.35,VWS V14.01,2013-09-24 23:00:00,
2013-09-24 19:02:00,75.6,68.2,29.94,North,0,0.0,0.0,78,0.00,,BKN100,0.35,VWS V14.01,2013-09-24 23:02:00,
2013-09-24 19:03:00,75.6,68.6,29.94,North,0,0.0,0.0,79,0.00,,BKN100,0.35,VWS V14.01,2013-09-24 23:03:00,
2013-09-24 19:05:00,75.6,68.6,29.94,North,0,0.0,0.0,79,0.00,,BKN100,0.35,VWS V14.01,2013-09-24 23:05:00,
2013-09-24 19:06:00,75.7,68.8,29.94,North,0,0.0,0.0,79,0.00,,BKN100,0.35,VWS V14.01,2013-09-24 23:06:00,
2013-09-24 19:07:00,75.7,68.8,29.94,North,0,0.0,0.0,79,0.00,,BKN100,0.35,VWS V14.01,2013-09-24 23:07:00,
2013-09-24 19:10:00,75.7,68.8,29.94,North,0,0.0,0.0,79,0.00,,BKN100,0.35,VWS V14.01,2013-09-24 23:10:00,
2013-09-24 19:11:00,75.7,68.8,29.94,North,0,0.0,0.0,79,0.00,,BKN100,0.35,VWS V14.01,2013-09-24 23:11:00,
2013-09-24 19:12:00,75.7,69.1,29.94,North,0,0.0,0.0,80,0.00,,BKN100,0.35,VWS V14.01,2013-09-24 23:12:00,
2013-09-24 19:14:00,75.7,69.1,29.94,North,0,0.0,0.0,80,0.00,,BKN100,0.35,VWS V14.01,2013-09-24 23:14:00,
2013-09-24 19:16:00,75.7,69.1,29.94,North,0,0.0,0.0,80,0.00,,BKN100,0.35,VWS V14.01,2013-09-24 23:16:00,
2013-09-24 19:18:00,75.7,69.1,29.94,North,0,0.0,0.0,80,0.00,,BKN100,0.35,VWS V14.01,2013-09-24 23:18:00,
2013-09-24 19:19:00,75.7,69.1,29.94,North,0,0.0,0.0,80,0.00,,BKN100,0.35,VWS V14.01,2013-09-24 23:19:00,
2013-09-24 19:21:00,75.7,69.1,29.94,North,0,0.0,0.0,80,0.00,,BKN100,0.35,VWS V14.01,2013-09-24 23:21:00,
2013-09-24 19:23:00,75.7,69.1,29.94,North,0,0.0,0.0,80,0.00,,BKN100,0.35,VWS V14.01,2013-09-24 23:23:00,
2013-09-24 19:25:00,75.7,69.1,29.94,North,0,0.0,0.0,80,0.00,,BKN100,0.35,VWS V14.01,2013-09-24 23:25:00,
2013-09-24 19:26:00,75.7,69.1,29.94,North,0,0.0,0.0,80,0.00,,BKN100,0.35,VWS V14.01,2013-09-24 23:26:00,
2013-09-24 19:28:00,75.6,69.0,29.94,North,0,0.0,0.0,80,0.00,,BKN100,0.35,VWS V14.01,2013-09-24 23:28:00,
2013-09-24 19:30:00,75.6,69.0,29.94,North,0,0.0,0.0,80,0.00,,BKN100,0.35,VWS V14.01,2013-09-24 23:30:00,
2013-09-24 19:31:00,75.6,69.0,29.94,North,0,0.0,0.0,80,0.00,,BKN100,0.35,VWS V14.01,2013-09-24 23:31:00,
2013-09-24 19:35:00,75.4,68.8,29.94,North,0,0.0,0.0,80,0.00,,BKN100,0.35,VWS V14.01,2013-09-24 23:35:00,
2013-09-24 19:36:00,75.4,68.8,29.94,North,0,0.0,0.0,80,0.00,,BKN100,0.35,VWS V14.01,2013-09-24 23:36:00,
2013-09-24 19:37:00,75.4,68.8,29.94,North,0,0.0,0.0,80,0.00,,BKN100,0.35,VWS V14.01,2013-09-24 23:37:00,
2013-09-24 19:40:00,75.4,68.8,29.94,North,0,0.0,0.0,80,0.00,,BKN100,0.35,VWS V14.01,2013-09-24 23:40:00,
2013-09-24 19:41:00,75.4,68.8,29.94,North,0,0.0,0.0,80,0.00,,BKN100,0.35,VWS V14.01,2013-09-24 23:41:00,
2013-09-24 19:43:00,75.4,68.8,29.94,North,0,0.0,0.0,80,0.00,,BKN100,0.35,VWS V14.01,2013-09-24 23:43:00,
2013-09-24 19:45:00,75.2,68.6,29.94,North,0,0.0,0.0,80,0.00,,BKN100,0.35,VWS V14.01,2013-09-24 23:45:00,
2013-09-24 19:46:00,75.2,68.6,29.94,North,0,0.0,0.0,80,0.00,,BKN100,0.35,VWS V14.01,2013-09-24 23:46:00,
2013-09-24 19:49:00,75.2,68.6,29.94,North,0,0.0,0.0,80,0.00,,BKN100,0.35,VWS V14.01,2013-09-24 23:49:00,
2013-09-24 19:50:00,75.2,68.6,29.94,North,0,0.0,0.0,80,0.00,,BKN100,0.35,VWS V14.01,2013-09-24 23:50:00,
2013-09-24 19:52:00,75.0,68.8,29.94,North,0,0.0,0.0,81,0.00,,BKN100,0.35,VWS V14.01,2013-09-24 23:52:00,
2013-09-24 19:55:00,75.0,68.8,29.94,North,0,0.0,0.0,81,0.00,,BKN100,0.35,VWS V14.01,2013-09-24 23:55:00,
2013-09-24 19:58:00,75.0,68.8,29.94,North,0,0.0,0.0,81,0.00,,BKN100,0.35,VWS V14.01,2013-09-24 23:58:00,
2013-09-24 20:00:00,75.0,68.8,29.94,North,0,0.0,0.0,81,0.00,,BKN100,0.35,VWS V14.01,2013-09-25 00:00:00,
2013-09-24 20:02:00,75.0,68.8,29.94,North,0,0.0,0.0,81,0.00,,BKN100,0.35,VWS V14.01,2013-09-25 00:02:00,
2013-09-24 20:04:00,75.0,68.8,29.94,North,0,0.0,0.0,81,0.00,,BKN100,0.35,VWS V14.01,2013-09-25 00:04:00,
2013-09-24 20:06:00,75.0,69.2,29.94,North,0,0.0,0.0,82,0.00,,BKN100,0.35,VWS V14.01,2013-09-25 00:06:00,
2013-09-24 20:07:00,75.0,69.2,29.94,North,0,0.0,0.0,82,0.00,,BKN100,0.35,VWS V14.01,2013-09-25 00:07:00,
2013-09-24 20:12:00,75.0,69.2,29.94,North,0,0.0,0.0,82,0.00,,BKN100,0.35,VWS V14.01,2013-09-25 00:12:00,
2013-09-24 20:13:00,75.0,69.2,29.94,North,0,0.0,0.0,82,0.00,,BKN100,0.35,VWS V14.01,2013-09-25 00:13:00,
2013-09-24 20:14:00,75.0,69.2,29.91,North,0,0.0,0.0,82,0.00,,BKN100,0.35,VWS V14.01,2013-09-25 00:14:00,
2013-09-24 20:18:00,75.0,69.2,29.91,North,0,0.0,0.0,82,0.00,,BKN100,0.35,VWS V14.01,2013-09-25 00:18:00,
2013-09-24 20:20:00,75.0,69.2,29.91,North,0,0.0,0.0,82,0.00,,BKN100,0.35,VWS V14.01,2013-09-25 00:20:00,
2013-09-24 20:22:00,74.8,69.0,29.91,North,0,0.0,0.0,82,0.00,,BKN100,0.35,VWS V14.01,2013-09-25 00:22:00,
2013-09-24 20:23:00,74.8,69.0,29.91,North,0,0.0,0.0,82,0.00,,BKN100,0.35,VWS V14.01,2013-09-25 00:23:00,
2013-09-24 20:25:00,74.8,69.0,29.91,North,0,0.0,0.0,82,0.00,,BKN100,0.35,VWS V14.01,2013-09-25 00:25:00,
2013-09-24 20:26:00,75.0,69.5,29.91,North,0,0.0,0.0,83,0.00,,BKN100,0.35,VWS V14.01,2013-09-25 00:26:00,
2013-09-24 20:29:00,75.0,69.5,29.94,North,0,0.0,0.0,83,0.00,,BKN100,0.35,VWS V14.01,2013-09-25 00:29:00,
2013-09-24 20:32:00,75.0,69.5,29.94,North,0,0.0,0.0,83,0.00,,BKN100,0.35,VWS V14.01,2013-09-25 00:32:00,
2013-09-24 20:34:00,75.0,69.5,29.94,North,0,0.0,0.0,83,0.00,,BKN100,0.35,VWS V14.01,2013-09-25 00:34:00,
2013-09-24 20:37:00,75.2,69.7,29.94,North,0,0.0,0.0,83,0.00,,BKN100,0.35,VWS V14.01,2013-09-25 00:37:00,
2013-09-24 20:38:00,75.2,69.7,29.94,North,0,0.0,0.0,83,0.00,,BKN100,0.35,VWS V14.01,2013-09-25 00:38:00,
2013-09-24 20:39:00,75.2,69.7,29.94,North,0,0.0,0.0,83,0.00,,BKN100,0.35,VWS V14.01,2013-09-25 00:39:00,
2013-09-24 20:40:00,75.2,70.0,29.94,North,0,0.0,0.0,84,0.00,,BKN100,0.35,VWS V14.01,2013-09-25 00:40:00,
2013-09-24 20:41:00,75.2,70.0,29.94,North,0,0.0,0.0,84,0.00,,BKN100,0.35,VWS V14.01,2013-09-25 00:41:00,
2013-09-24 20:43:00,75.2,70.0,29.94,North,0,0.0,0.0,84,0.00,,BKN100,0.35,VWS V14.01,2013-09-25 00:43:00,
2013-09-24 20:44:00,75.2,70.0,29.94,North,0,0.0,0.0,84,0.00,,BKN100,0.35,VWS V14.01,2013-09-25 00:44:00,
2013-09-24 20:47:00,75.2,70.0,29.94,North,0,0.0,0.0,84,0.00,,BKN100,0.35,VWS V14.01,2013-09-25 00:47:00,
2013-09-24 20:49:00,75.2,70.0,29.94,North,0,0.0,0.0,84,0.00,,BKN100,0.35,VWS V14.01,2013-09-25 00:49:00,
2013-09-24 20:50:00,75.2,70.0,29.94,North,0,0.0,0.0,84,0.00,,BKN100,0.35,VWS V14.01,2013-09-25 00:50:00,
2013-09-24 20:53:00,75.4,70.2,29.94,North,0,0.0,0.0,84,0.00,,BKN100,0.35,VWS V14.01,2013-09-25 00:53:00,
2013-09-24 20:55:00,75.4,70.2,29.94,North,0,0.0,0.0,84,0.00,,BKN100,0.35,VWS V14.01,2013-09-25 00:55:00,
2013-09-24 20:56:00,75.4,70.2,29.94,North,0,0.0,0.0,84,0.00,,BKN100,0.35,VWS V14.01,2013-09-25 00:56:00,
2013-09-24 20:59:00,75.4,70.2,29.94,North,0,0.0,0.0,84,0.00,,BKN100,0.35,VWS V14.01,2013-09-25 00:59:00,
2013-09-24 21:01:00,75.4,70.2,29.94,North,0,0.0,0.0,84,0.00,,BKN100,0.35,VWS V14.01,2013-09-25 01:01:00,
2013-09-24 21:04:00,75.4,70.2,29.94,North,0,0.0,0.0,84,0.00,,BKN100,0.35,VWS V14.01,2013-09-25 01:04:00,
2013-09-24 21:06:00,75.4,70.2,29.94,North,0,0.0,0.0,84,0.00,,BKN100,0.35,VWS V14.01,2013-09-25 01:06:00,
2013-09-24 21:09:00,75.4,70.2,29.94,North,0,0.0,0.0,84,0.00,,BKN100,0.35,VWS V14.01,2013-09-25 01:09:00,
2013-09-24 21:11:00,75.4,70.2,29.94,North,0,0.0,0.0,84,0.00,,BKN100,0.35,VWS V14.01,2013-09-25 01:11:00,
2013-09-24 21:12:00,75.4,70.2,29.94,North,0,0.0,0.0,84,0.00,,BKN100,0.35,VWS V14.01,2013-09-25 01:12:00,
2013-09-24 21:16:00,75.4,70.6,29.94,North,0,0.0,0.0,85,0.00,,BKN100,0.35,VWS V14.01,2013-09-25 01:16:00,
2013-09-24 21:17:00,75.4,70.6,29.94,North,0,0.0,0.0,85,0.00,,BKN100,0.35,VWS V14.01,2013-09-25 01:17:00,
2013-09-24 21:18:00,75.4,70.6,29.94,North,0,0.0,0.0,85,0.00,,BKN100,0.35,VWS V14.01,2013-09-25 01:18:00,
2013-09-24 21:21:00,75.2,70.4,29.94,North,0,0.0,0.0,85,0.00,,BKN100,0.35,VWS V14.01,2013-09-25 01:21:00,
2013-09-24 21:22:00,75.2,70.4,29.94,North,0,0.0,0.0,85,0.00,,BKN100,0.35,VWS V14.01,2013-09-25 01:22:00,
2013-09-24 21:25:00,75.2,70.4,29.94,North,0,0.0,0.0,85,0.00,,BKN100,0.35,VWS V14.01,2013-09-25 01:25:00,
2013-09-24 21:27:00,75.2,70.4,29.94,North,0,0.0,0.0,85,0.00,,BKN100,0.35,VWS V14.01,2013-09-25 01:27:00,
2013-09-24 21:31:00,75.2,70.4,29.94,North,0,0.0,0.0,85,0.00,,BKN100,0.35,VWS V14.01,2013-09-25 01:31:00,
2013-09-24 21:32:00,75.2,70.4,29.94,North,0,0.0,0.0,85,0.00,,BKN100,0.35,VWS V14.01,2013-09-25 01:32:00,
2013-09-24 21:33:00,75.2,70.4,29.94,North,0,0.0,0.0,85,0.02,,BKN100,0.37,VWS V14.01,2013-09-25 01:33:00,
2013-09-24 21:34:00,75.2,70.4,29.94,North,0,0.0,0.0,85,0.02,,BKN100,0.37,VWS V14.01,2013-09-25 01:34:00,
2013-09-24 21:35:00,75.2,70.4,29.94,North,0,0.0,0.0,85,0.02,,BKN100,0.37,VWS V14.01,2013-09-25 01:35:00,
2013-09-24 21:39:00,75.2,70.4,29.94,North,0,0.0,0.0,85,0.02,,BKN100,0.37,VWS V14.01,2013-09-25 01:39:00,
2013-09-24 21:41:00,75.2,70.4,29.94,North,0,0.0,0.0,85,0.02,,BKN100,0.37,VWS V14.01,2013-09-25 01:41:00,
2013-09-24 21:42:00,75.2,70.4,29.94,North,0,0.0,0.0,85,0.02,,BKN100,0.37,VWS V14.01,2013-09-25 01:42:00,
2013-09-24 21:47:00,75.2,70.4,29.94,North,0,0.0,0.0,85,0.02,,BKN100,0.37,VWS V14.01,2013-09-25 01:47:00,
2013-09-24 21:48:00,75.4,70.6,29.94,North,0,0.0,0.0,85,0.02,,BKN100,0.37,VWS V14.01,2013-09-25 01:48:00,
2013-09-24 21:51:00,75.4,70.6,29.94,North,0,0.0,0.0,85,0.02,,BKN100,0.37,VWS V14.01,2013-09-25 01:51:00,
2013-09-24 21:52:00,75.4,70.6,29.94,North,0,0.0,0.0,85,0.02,,BKN100,0.37,VWS V14.01,2013-09-25 01:52:00,
2013-09-24 21:54:00,75.4,70.6,29.94,North,0,0.0,0.0,85,0.02,,BKN100,0.37,VWS V14.01,2013-09-25 01:54:00,
2013-09-24 21:59:00,75.4,70.9,29.91,North,0,0.0,0.0,86,0.02,,BKN100,0.37,VWS V14.01,2013-09-25 01:59:00,
2013-09-24 22:00:00,75.4,70.9,29.91,North,0,0.0,0.0,86,0.02,,BKN100,0.37,VWS V14.01,2013-09-25 02:00:00,
2013-09-24 22:02:00,75.6,71.1,29.91,North,0,0.0,0.0,86,0.02,,BKN100,0.37,VWS V14.01,2013-09-25 02:02:00,
2013-09-24 22:05:00,75.6,71.1,29.91,North,0,0.0,0.0,86,0.02,,BKN100,0.37,VWS V14.01,2013-09-25 02:05:00,
2013-09-24 22:07:00,75.6,71.1,29.91,North,0,0.0,0.0,86,0.02,,BKN100,0.37,VWS V14.01,2013-09-25 02:07:00,
2013-09-24 22:08:00,75.6,71.1,29.91,North,0,0.0,0.0,86,0.02,,BKN100,0.37,VWS V14.01,2013-09-25 02:08:00,
2013-09-24 22:09:00,75.6,71.1,29.91,North,0,0.0,0.0,86,0.02,,BKN100,0.37,VWS V14.01,2013-09-25 02:09:00,
2013-09-24 22:10:00,75.6,71.1,29.91,North,0,0.0,0.0,86,0.02,,BKN100,0.37,VWS V14.01,2013-09-25 02:10:00,
2013-09-24 22:15:00,75.4,70.9,29.91,North,0,0.0,0.0,86,0.02,,BKN100,0.37,VWS V14.01,2013-09-25 02:15:00,
2013-09-24 22:17:00,75.4,70.9,29.91,North,0,0.0,0.0,86,0.02,,BKN100,0.37,VWS V14.01,2013-09-25 02:17:00,
2013-09-24 22:18:00,75.4,70.9,29.91,North,0,0.0,0.0,86,0.02,,BKN100,0.37,VWS V14.01,2013-09-25 02:18:00,
2013-09-24 22:20:00,75.2,70.7,29.91,North,0,0.0,0.0,86,0.02,,BKN100,0.37,VWS V14.01,2013-09-25 02:20:00,
2013-09-24 22:23:00,75.2,70.7,29.91,North,0,0.0,0.0,86,0.02,,BKN100,0.37,VWS V14.01,2013-09-25 02:23:00,
2013-09-24 22:25:00,75.2,70.7,29.91,North,0,0.0,0.0,86,0.02,,BKN100,0.37,VWS V14.01,2013-09-25 02:25:00,
2013-09-24 22:27:00,75.2,70.7,29.91,North,0,0.0,0.0,86,0.02,,BKN100,0.37,VWS V14.01,2013-09-25 02:27:00,
2013-09-24 22:29:00,75.2,70.7,29.91,North,0,0.0,0.0,86,0.02,,BKN100,0.37,VWS V14.01,2013-09-25 02:29:00,
2013-09-24 22:30:00,75.0,70.9,29.91,North,0,0.0,0.0,87,0.02,,BKN100,0.37,VWS V14.01,2013-09-25 02:30:00,
2013-09-24 22:32:00,75.0,70.9,29.91,North,0,0.0,0.0,87,0.02,,BKN100,0.37,VWS V14.01,2013-09-25 02:32:00,
2013-09-24 22:33:00,75.0,70.9,29.91,North,0,0.0,0.0,87,0.02,,BKN100,0.37,VWS V14.01,2013-09-25 02:33:00,
2013-09-24 22:36:00,75.0,70.9,29.91,North,0,0.0,0.0,87,0.00,,BKN100,0.37,VWS V14.01,2013-09-25 02:36:00,
2013-09-24 22:37:00,75.0,70.9,29.91,North,0,0.0,0.0,87,0.00,,BKN100,0.37,VWS V14.01,2013-09-25 02:37:00,
2013-09-24 22:38:00,75.0,70.9,29.91,North,0,0.0,0.0,87,0.00,,BKN100,0.37,VWS V14.01,2013-09-25 02:38:00,
2013-09-24 22:40:00,75.0,70.9,29.91,North,0,0.0,0.0,87,0.00,,BKN100,0.37,VWS V14.01,2013-09-25 02:40:00,
2013-09-24 22:41:00,75.2,71.1,29.91,North,0,0.0,0.0,87,0.00,,BKN100,0.37,VWS V14.01,2013-09-25 02:41:00,
2013-09-24 22:43:00,75.2,71.1,29.91,North,0,0.0,0.0,87,0.00,,BKN100,0.37,VWS V14.01,2013-09-25 02:43:00,
2013-09-24 22:45:00,75.2,71.1,29.91,North,0,0.0,0.0,87,0.00,,BKN100,0.37,VWS V14.01,2013-09-25 02:45:00,
2013-09-24 22:48:00,75.2,71.1,29.91,North,0,0.0,0.0,87,0.00,,BKN100,0.37,VWS V14.01,2013-09-25 02:48:00,
2013-09-24 22:50:00,75.2,71.1,29.91,North,0,0.0,0.0,87,0.00,,BKN100,0.37,VWS V14.01,2013-09-25 02:50:00,
2013-09-24 22:51:00,75.2,71.1,29.91,North,0,0.0,0.0,87,0.00,,BKN100,0.37,VWS V14.01,2013-09-25 02:51:00,
2013-09-24 22:53:00,75.2,71.1,29.91,North,0,0.0,0.0,87,0.00,,BKN100,0.37,VWS V14.01,2013-09-25 02:53:00,
2013-09-24 22:55:00,75.2,71.1,29.91,North,0,0.0,0.0,87,0.00,,BKN100,0.37,VWS V14.01,2013-09-25 02:55:00,
2013-09-24 22:56:00,75.2,71.1,29.91,North,0,0.0,0.0,87,0.00,,BKN100,0.37,VWS V14.01,2013-09-25 02:56:00,
2013-09-24 22:57:00,75.2,71.1,29.91,North,0,0.0,0.0,87,0.00,,BKN100,0.37,VWS V14.01,2013-09-25 02:57:00,
2013-09-24 22:58:00,75.2,71.1,29.91,North,0,0.0,0.0,87,0.00,,BKN100,0.37,VWS V14.01,2013-09-25 02:58:00,
2013-09-24 23:00:00,75.0,71.2,29.91,North,0,0.0,0.0,88,0.00,,BKN100,0.37,VWS V14.01,2013-09-25 03:00:00,
2013-09-24 23:02:00,75.0,71.2,29.91,North,0,0.0,0.0,88,0.00,,BKN100,0.37,VWS V14.01,2013-09-25 03:02:00,
2013-09-24 23:03:00,75.0,71.2,29.91,North,0,0.0,0.0,88,0.00,,BKN100,0.37,VWS V14.01,2013-09-25 03:03:00,
2013-09-24 23:04:00,75.0,71.2,29.91,North,0,0.0,0.0,88,0.00,,BKN100,0.37,VWS V14.01,2013-09-25 03:04:00,
2013-09-24 23:06:00,75.0,71.2,29.91,North,0,0.0,0.0,88,0.00,,BKN100,0.37,VWS V14.01,2013-09-25 03:06:00,
2013-09-24 23:07:00,75.0,71.2,29.91,North,0,0.0,0.0,88,0.00,,BKN100,0.37,VWS V14.01,2013-09-25 03:07:00,
2013-09-24 23:09:00,75.0,71.2,29.91,North,0,0.0,0.0,88,0.00,,BKN100,0.37,VWS V14.01,2013-09-25 03:09:00,
2013-09-24 23:11:00,75.0,71.2,29.91,North,0,0.0,0.0,88,0.00,,BKN100,0.37,VWS V14.01,2013-09-25 03:11:00,
2013-09-24 23:13:00,75.0,71.2,29.91,North,0,0.0,0.0,88,0.00,,BKN100,0.37,VWS V14.01,2013-09-25 03:13:00,
2013-09-24 23:14:00,75.0,71.2,29.91,North,0,0.0,0.0,88,0.00,,BKN100,0.37,VWS V14.01,2013-09-25 03:14:00,
2013-09-24 23:16:00,75.0,71.2,29.91,North,0,0.0,0.0,88,0.00,,BKN100,0.37,VWS V14.01,2013-09-25 03:16:00,
2013-09-24 23:17:00,75.2,71.4,29.91,North,0,0.0,0.0,88,0.00,,BKN100,0.37,VWS V14.01,2013-09-25 03:17:00,
2013-09-24 23:18:00,75.2,71.4,29.91,North,0,0.0,0.0,88,0.00,,BKN100,0.37,VWS V14.01,2013-09-25 03:18:00,
2013-09-24 23:19:00,75.2,71.4,29.91,North,0,0.0,0.0,88,0.00,,BKN100,0.37,VWS V14.01,2013-09-25 03:19:00,
2013-09-24 23:21:00,75.2,71.4,29.91,North,0,0.0,0.0,88,0.00,,BKN100,0.37,VWS V14.01,2013-09-25 03:21:00,
2013-09-24 23:23:00,75.2,71.4,29.91,North,0,0.0,0.0,88,0.00,,BKN100,0.37,VWS V14.01,2013-09-25 03:23:00,
2013-09-24 23:24:00,75.2,71.4,29.91,North,0,0.0,0.0,88,0.00,,BKN100,0.37,VWS V14.01,2013-09-25 03:24:00,
2013-09-24 23:27:00,75.2,71.4,29.91,North,0,0.0,0.0,88,0.00,,BKN100,0.37,VWS V14.01,2013-09-25 03:27:00,
2013-09-24 23:29:00,75.4,71.6,29.94,North,0,0.0,0.0,88,0.00,,BKN100,0.37,VWS V14.01,2013-09-25 03:29:00,
2013-09-24 23:31:00,75.4,71.6,29.94,North,0,0.0,0.0,88,0.00,,BKN100,0.37,VWS V14.01,2013-09-25 03:31:00,
2013-09-24 23:33:00,75.4,71.9,29.94,North,0,0.0,0.0,89,0.00,,BKN100,0.37,VWS V14.01,2013-09-25 03:33:00,
2013-09-24 23:35:00,75.4,71.9,29.94,North,0,0.0,0.0,89,0.00,,BKN100,0.37,VWS V14.01,2013-09-25 03:35:00,
2013-09-24 23:36:00,75.4,71.9,29.94,North,0,0.0,0.0,89,0.00,,BKN100,0.37,VWS V14.01,2013-09-25 03:36:00,
2013-09-24 23:37:00,75.4,71.9,29.94,North,0,0.0,0.0,89,0.00,,BKN100,0.37,VWS V14.01,2013-09-25 03:37:00,
2013-09-24 23:40:00,75.4,71.9,29.94,North,0,0.0,0.0,89,0.00,,BKN100,0.37,VWS V14.01,2013-09-25 03:40:00,
2013-09-24 23:42:00,75.6,72.1,29.94,North,0,0.0,0.0,89,0.00,,BKN100,0.37,VWS V14.01,2013-09-25 03:42:00,
2013-09-24 23:43:00,75.6,72.1,29.94,North,0,0.0,0.0,89,0.00,,BKN100,0.37,VWS V14.01,2013-09-25 03:43:00,
2013-09-24 23:45:00,75.6,72.1,29.91,North,0,0.0,0.0,89,0.00,,BKN100,0.37,VWS V14.01,2013-09-25 03:45:00,
2013-09-24 23:46:00,75.6,72.1,29.91,North,0,0.0,0.0,89,0.00,,BKN100,0.37,VWS V14.01,2013-09-25 03:46:00,
2013-09-24 23:47:00,75.4,71.9,29.91,North,0,0.0,0.0,89,0.00,,BKN100,0.37,VWS V14.01,2013-09-25 03:47:00,
2013-09-24 23:50:00,75.4,71.9,29.91,North,0,0.0,0.0,89,0.00,,BKN100,0.37,VWS V14.01,2013-09-25 03:50:00,
2013-09-24 23:51:00,75.4,71.9,29.91,North,0,0.0,0.0,89,0.00,,BKN100,0.37,VWS V14.01,2013-09-25 03:51:00,
2013-09-24 23:52:00,75.4,71.9,29.91,North,0,0.0,0.0,89,0.00,,BKN100,0.37,VWS V14.01,2013-09-25 03:52:00,
2013-09-24 23:55:00,75.4,71.9,29.91,North,0,0.0,0.0,89,0.00,,BKN100,0.37,VWS V14.01,2013-09-25 03:55:00,
2013-09-24 23:56:00,75.4,71.9,29.91,North,0,0.0,0.0,89,0.00,,BKN100,0.37,VWS V14.01,2013-09-25 03:56:00,
2013-09-24 23:59:00,75.4,71.9,29.91,North,0,0.0,0.0,89,0.00,,BKN100,0.37,VWS V14.01,2013-09-25 03:59:00,